Observation data for Clyde on 02/11/2019      Previous  Date  Next       Current Mesonet Observations  Soil Data  Daily Summary Page  Observations in Plain Language
KCL2 110601Z 17011KT 07/07 A2996 RMK A01 T00740074  RH  100%=      5-min Rain = 0
KCL2 110602Z 17011G16KT 07/07 A2997 RMK A01 T00740074  RH  100%=      5-min Rain = 0
KCL2 110603Z 17013KT 08/08 A2997 RMK A01 T00750075  RH  100%=      5-min Rain = 0
KCL2 110604Z 17013KT 08/08 A2997 RMK A01 T00750075  RH  100%=      5-min Rain = 0
KCL2 110605Z 17014KT 08/08 A2997 RMK A01 T00750075  RH  100%=      5-min Rain = 0
KCL2 110606Z 17012KT 08/08 A2997 RMK A01 T00750075  RH  100%=      5-min Rain = 0
KCL2 110607Z 17012KT 08/08 A2997 RMK A01 T00750075  RH  100%=      5-min Rain = 0
KCL2 110608Z 17012KT 08/08 A2997 RMK A01 T00750075  RH  100%=      5-min Rain = 0
KCL2 110609Z 18014KT 08/08 A2997 RMK A01 T00750075  RH  100%=      5-min Rain = 0
KCL2 110610Z 18013KT 08/08 A2997 RMK A01 T00750075  RH  100%=      5-min Rain = 0
KCL2 110611Z 18012KT 08/08 A2997 RMK A01 T00750075  RH  100%=      5-min Rain = 0
KCL2 110612Z 18012KT 08/08 A2997 RMK A01 T00750075  RH  100%=      5-min Rain = 0
KCL2 110613Z 17012KT 08/08 A2997 RMK A01 T00760076  RH  100%=      5-min Rain = 0
KCL2 110614Z 17012KT 08/08 A2997 RMK A01 T00760076  RH  100%=      5-min Rain = 0
KCL2 110615Z 17012KT 08/08 A2996 RMK A01 T00760076  RH  100%=      5-min Rain = 0
KCL2 110616Z 17012KT 08/08 A2996 RMK A01 T00760076  RH  100%=      5-min Rain = 0
KCL2 110617Z 18012KT 08/08 A2996 RMK A01 T00760076  RH  100%=      5-min Rain = 0
KCL2 110618Z 17013KT 08/08 A2996 RMK A01 T00760076  RH  100%=      5-min Rain = 0
KCL2 110619Z 17012KT 08/08 A2996 RMK A01 T00760076  RH  100%=      5-min Rain = 0
KCL2 110620Z 17014KT 08/08 A2996 RMK A01 T00770077  RH  100%=      5-min Rain = 0
KCL2 110621Z 17012KT 08/08 A2996 RMK A01 T00770077  RH  100%=      5-min Rain = 0
KCL2 110622Z 17013KT 08/08 A2995 RMK A01 T00770077  RH  100%=      5-min Rain = 0
KCL2 110623Z 17014KT 08/08 A2995 RMK A01 T00770077  RH  100%=      5-min Rain = 0
KCL2 110624Z 17013KT 08/08 A2995 RMK A01 T00770077  RH  100%=      5-min Rain = 0
KCL2 110625Z 17014KT 08/08 A2995 RMK A01 T00770077  RH  100%=      5-min Rain = 0
KCL2 110626Z 17013KT 08/08 A2995 RMK A01 T00770077  RH  100%=      5-min Rain = 0
KCL2 110627Z 17014KT 08/08 A2996 RMK A01 T00770077  RH  100%=      5-min Rain = 0
KCL2 110628Z 17014KT 08/08 A2996 RMK A01 T00760076  RH  100%=      5-min Rain = 0
KCL2 110629Z 18014KT 08/08 A2996 RMK A01 T00770077  RH  100%=      5-min Rain = 0
KCL2 110630Z 17017KT 08/08 A2996 RMK A01 T00770077  RH  100%=      5-min Rain = 0
KCL2 110631Z 17014KT 08/08 A2996 RMK A01 T00770077  RH  100%=      5-min Rain = 0
KCL2 110632Z 18014KT 08/08 A2996 RMK A01 T00770077  RH  100%=      5-min Rain = 0
KCL2 110633Z 17013KT 08/08 A2995 RMK A01 T00760076  RH  100%=      5-min Rain = 0
KCL2 110634Z 17012KT 08/08 A2995 RMK A01 T00760076  RH  100%=      5-min Rain = 0
KCL2 110635Z 17012KT 08/08 A2995 RMK A01 T00760076  RH  100%=      5-min Rain = 0
KCL2 110636Z 17012KT 08/08 A2995 RMK A01 T00760076  RH  100%=      5-min Rain = 0
KCL2 110637Z 17012KT 08/08 A2995 RMK A01 T00760076  RH  100%=      5-min Rain = 0
KCL2 110638Z 17013G18KT 08/08 A2995 RMK A01 T00760076  RH  100%=      5-min Rain = 0
KCL2 110639Z 17013G18KT 08/08 A2995 RMK A01 T00760076  RH  100%=      5-min Rain = 0
KCL2 110640Z 16011KT 08/08 A2994 RMK A01 T00760076  RH  100%=      5-min Rain = 0
KCL2 110641Z 16013KT 08/08 A2994 RMK A01 T00760076  RH  100%=      5-min Rain = 0
KCL2 110642Z 16013KT 08/08 A2994 RMK A01 T00760076  RH  100%=      5-min Rain = 0
KCL2 110643Z 16014KT 08/08 A2994 RMK A01 T00760076  RH  100%=      5-min Rain = 0
KCL2 110644Z 17013KT 08/08 A2994 RMK A01 T00760076  RH  100%=      5-min Rain = 0
KCL2 110645Z 16011KT 08/08 A2994 RMK A01 T00760076  RH  100%=      5-min Rain = 0
KCL2 110646Z 16014KT 08/08 A2993 RMK A01 T00760076  RH  100%=      5-min Rain = 0
KCL2 110647Z 16010KT 08/08 A2993 RMK A01 T00760076  RH  100%=      5-min Rain = 0
KCL2 110648Z 16011KT 08/08 A2993 RMK A01 T00760076  RH  100%=      5-min Rain = 0
KCL2 110649Z 16012KT 08/08 A2993 RMK A01 T00760076  RH  100%=      5-min Rain = 0
KCL2 110650Z 16013KT 08/08 A2993 RMK A01 T00760077  RH  100%=      5-min Rain = 0
KCL2 110651Z 15013KT 08/08 A2993 RMK A01 T00770077  RH  100%=      5-min Rain = 0
KCL2 110652Z 16012KT 08/08 A2993 RMK A01 T00770077  RH  100%=      5-min Rain = 0
KCL2 110653Z 15010KT 08/08 A2993 RMK A01 T00770077  RH  100%=      5-min Rain = 0
KCL2 110654Z 16010KT 08/08 A2993 RMK A01 T00760076  RH  100%=      5-min Rain = 0
KCL2 110655Z 16011KT 08/08 A2993 RMK A01 T00770077  RH  100%=      5-min Rain = 0
KCL2 110656Z 16010KT 08/08 A2992 RMK A01 T00770077  RH  100%=      5-min Rain = 0
KCL2 110657Z 16010KT 08/08 A2992 RMK A01 T00770077  RH  100%=      5-min Rain = 0
KCL2 110658Z 16011KT 08/08 A2992 RMK A01 T00770077  RH  100%=      5-min Rain = 0
KCL2 110659Z 16011KT 08/08 A2992 RMK A01 T00770077  RH  100%=      5-min Rain = 0
KCL2 110700Z 16009KT 08/08 A2992 RMK A01 T00770077  RH  100%=      5-min Rain = 0
KCL2 110701Z 16010KT 08/08 A2992 RMK A01 T00770077  RH  100%=      5-min Rain = 0
KCL2 110702Z 16010KT 08/08 A2992 RMK A01 T00770077  RH  100%=      5-min Rain = 0
KCL2 110703Z 16010KT 08/08 A2992 RMK A01 T00770077  RH  100%=      5-min Rain = 0
KCL2 110704Z 16011KT 08/08 A2992 RMK A01 T00770077  RH  100%=      5-min Rain = 0
KCL2 110705Z 16010KT 08/08 A2992 RMK A01 T00770077  RH  100%=      5-min Rain = 0
KCL2 110706Z 16010KT 08/08 A2992 RMK A01 T00770077  RH  100%=      5-min Rain = 0
KCL2 110707Z 17009KT 08/08 A2992 RMK A01 T00770077  RH  100%=      5-min Rain = 0
KCL2 110708Z 17008KT 08/08 A2992 RMK A01 T00770077  RH  100%=      5-min Rain = 0
KCL2 110709Z 17007KT 08/08 A2992 RMK A01 T00770077  RH  100%=      5-min Rain = 0
KCL2 110710Z 17009KT 08/08 A2992 RMK A01 T00770077  RH  100%=      5-min Rain = 0
KCL2 110711Z 17008KT 08/08 A2992 RMK A01 T00770077  RH  100%=      5-min Rain = 0
KCL2 110712Z 17009KT 08/08 A2992 RMK A01 T00770077  RH  100%=      5-min Rain = 0
KCL2 110713Z 17008KT 08/08 A2992 RMK A01 T00770077  RH  100%=      5-min Rain = 0
KCL2 110714Z 18008KT 08/08 A2992 RMK A01 T00770077  RH  100%=      5-min Rain = 0
KCL2 110715Z 18007KT 08/08 A2992 RMK A01 T00770077  RH  100%=      5-min Rain = 0
KCL2 110716Z 18008KT 08/08 A2991 RMK A01 T00770077  RH  100%=      5-min Rain = 0
KCL2 110717Z 19007KT 08/08 A2991 RMK A01 T00770077  RH  100%=      5-min Rain = 0
KCL2 110718Z 18007KT 08/08 A2991 RMK A01 T00770077  RH  100%=      5-min Rain = 0
KCL2 110719Z 18008KT 08/08 A2991 RMK A01 T00770077  RH  100%=      5-min Rain = 0
KCL2 110720Z 18008KT 08/08 A2991 RMK A01 T00780078  RH  100%=      5-min Rain = 0
KCL2 110721Z 18009KT 08/08 A2991 RMK A01 T00780078  RH  100%=      5-min Rain = 0
KCL2 110722Z 18008KT 08/08 A2991 RMK A01 T00770077  RH  100%=      5-min Rain = 0
KCL2 110723Z 18008KT 08/08 A2991 RMK A01 T00780078  RH  100%=      5-min Rain = 0
KCL2 110724Z 19007KT 08/08 A2991 RMK A01 T00780078  RH  100%=      5-min Rain = 0
KCL2 110725Z 19008KT 08/08 A299 RMK A01 T00780078  RH  100%=      5-min Rain = 0
KCL2 110726Z 18007KT 08/08 A299 RMK A01 T00780078  RH  100%=      5-min Rain = 0
KCL2 110727Z 18007KT 08/08 A299 RMK A01 T00780078  RH  100%=      5-min Rain = 0
KCL2 110728Z 18007KT 08/08 A299 RMK A01 T00780078  RH  100%=      5-min Rain = 0
KCL2 110729Z 19007KT 08/08 A299 RMK A01 T00780078  RH  100%=      5-min Rain = 0
KCL2 110730Z 19007KT 08/08 A299 RMK A01 T00780078  RH  100%=      5-min Rain = 0
KCL2 110731Z 19007KT 08/08 A299 RMK A01 T00780078  RH  100%=      5-min Rain = 0
KCL2 110732Z 19006KT 08/08 A299 RMK A01 T00780078  RH  100%=      5-min Rain = 0
KCL2 110733Z 19006KT 08/08 A299 RMK A01 T00780078  RH  100%=      5-min Rain = 0
KCL2 110734Z 20005KT 08/08 A299 RMK A01 T00790079  RH  100%=      5-min Rain = 0
KCL2 110735Z 20005KT 08/08 A299 RMK A01 T00780078  RH  100%=      5-min Rain = 0
KCL2 110736Z 20005KT 08/08 A2989 RMK A01 T00790079  RH  100%=      5-min Rain = 0
KCL2 110737Z 20005KT 08/08 A2989 RMK A01 T00790079  RH  100%=      5-min Rain = 0
KCL2 110738Z 20005KT 08/08 A2989 RMK A01 T00780078  RH  100%=      5-min Rain = 0
KCL2 110739Z 20005KT 08/08 A2989 RMK A01 T00780078  RH  100%=      5-min Rain = 0
KCL2 110740Z 19004KT 08/08 A2989 RMK A01 T00790079  RH  100%=      5-min Rain = 0
KCL2 110741Z 19005KT 08/08 A2989 RMK A01 T00790079  RH  100%=      5-min Rain = 0
KCL2 110742Z 19006KT 08/08 A2989 RMK A01 T00790079  RH  100%=      5-min Rain = 0
KCL2 110743Z 18006KT 08/08 A2989 RMK A01 T00790079  RH  100%=      5-min Rain = 0
KCL2 110744Z 19006KT 08/08 A2989 RMK A01 T00790079  RH  100%=      5-min Rain = 0
KCL2 110745Z 18006KT 08/08 A2989 RMK A01 T00790079  RH  100%=      5-min Rain = 0
KCL2 110746Z 17007KT 08/08 A2989 RMK A01 T00790079  RH  100%=      5-min Rain = 0
KCL2 110747Z 17007KT 08/08 A2989 RMK A01 T00790079  RH  100%=      5-min Rain = 0
KCL2 110748Z 17006KT 08/08 A2989 RMK A01 T00790079  RH  100%=      5-min Rain = 0
KCL2 110749Z 17005KT 08/08 A2989 RMK A01 T00790079  RH  100%=      5-min Rain = 0
KCL2 110750Z 17006KT 08/08 A2989 RMK A01 T00790079  RH  100%=      5-min Rain = 0
KCL2 110751Z 17006KT 08/08 A2989 RMK A01 T00790079  RH  100%=      5-min Rain = 0
KCL2 110752Z 16007KT 08/08 A2989 RMK A01 T00790079  RH  100%=      5-min Rain = 0
KCL2 110753Z 15007KT 08/08 A2989 RMK A01 T00790079  RH  100%=      5-min Rain = 0
KCL2 110754Z 15009KT 08/08 A2989 RMK A01 T00790079  RH  100%=      5-min Rain = 0
KCL2 110755Z 16008KT 08/08 A2989 RMK A01 T00790079  RH  100%=      5-min Rain = 0
KCL2 110756Z 16008KT 08/08 A2989 RMK A01 T00790079  RH  100%=      5-min Rain = 0
KCL2 110757Z 16009KT 08/08 A2989 RMK A01 T00780078  RH  100%=      5-min Rain = 0
KCL2 110758Z 16009KT 08/08 A2989 RMK A01 T00780078  RH  100%=      5-min Rain = 0
KCL2 110759Z 16009KT 08/08 A2989 RMK A01 T00780078  RH  100%=      5-min Rain = 0
KCL2 110800Z 16011KT 08/08 A299 RMK A01 T00780078  RH  100%=      5-min Rain = 0
KCL2 110801Z 16010KT 08/08 A299 RMK A01 T00780078  RH  100%=      5-min Rain = 0
KCL2 110802Z 16012KT 08/08 A299 RMK A01 T00770078  RH  100%=      5-min Rain = 0
KCL2 110803Z 17010KT 08/08 A299 RMK A01 T00770077  RH  100%=      5-min Rain = 0
KCL2 110804Z 17010KT 08/08 A299 RMK A01 T00770077  RH  100%=      5-min Rain = 0
KCL2 110805Z 17011KT 08/08 A299 RMK A01 T00760076  RH  100%=      5-min Rain = 0
KCL2 110806Z 17011KT 08/08 A299 RMK A01 T00770077  RH  100%=      5-min Rain = 0
KCL2 110807Z 17012KT 08/08 A299 RMK A01 T00760076  RH  100%=      5-min Rain = 0
KCL2 110808Z 17010KT 08/08 A299 RMK A01 T00760076  RH  100%=      5-min Rain = 0
KCL2 110809Z 17010KT 08/08 A299 RMK A01 T00760076  RH  100%=      5-min Rain = 0
KCL2 110810Z 17011KT 08/08 A299 RMK A01 T00760076  RH  100%=      5-min Rain = 0
KCL2 110811Z 17011KT 08/08 A299 RMK A01 T00760076  RH  100%=      5-min Rain = 0
KCL2 110812Z 17010KT 08/08 A299 RMK A01 T00750075  RH  100%=      5-min Rain = 0
KCL2 110813Z 17010KT 08/08 A299 RMK A01 T00750075  RH  100%=      5-min Rain = 0
KCL2 110814Z 17012G17KT 08/08 A299 RMK A01 T00750075  RH  100%=      5-min Rain = 0
KCL2 110815Z 18012KT 08/08 A299 RMK A01 T00750075  RH  100%=      5-min Rain = 0
KCL2 110816Z 17012KT 08/08 A299 RMK A01 T00750075  RH  100%=      5-min Rain = 0
KCL2 110817Z 17013KT 08/08 A299 RMK A01 T00750075  RH  100%=      5-min Rain = 0
KCL2 110818Z 17010KT 08/08 A299 RMK A01 T00750075  RH  100%=      5-min Rain = 0
KCL2 110819Z 18007KT 08/08 A299 RMK A01 T00750075  RH  100%=      5-min Rain = 0
KCL2 110820Z 18009KT 08/08 A2989 RMK A01 T00750075  RH  100%=      5-min Rain = 0
KCL2 110821Z 17008KT 08/08 A299 RMK A01 T00750075  RH  100%=      5-min Rain = 0
KCL2 110822Z 18010KT 07/07 A299 RMK A01 T00740074  RH  100%=      5-min Rain = 0
KCL2 110823Z 17009KT 07/07 A299 RMK A01 T00740074  RH  100%=      5-min Rain = 0
KCL2 110824Z 18009KT 07/07 A299 RMK A01 T00740074  RH  100%=      5-min Rain = 0
KCL2 110825Z 18010KT 07/07 A2989 RMK A01 T00740074  RH  100%=      5-min Rain = 0
KCL2 110826Z 18011KT 07/07 A2989 RMK A01 T00740074  RH  100%=      5-min Rain = 0
KCL2 110827Z 18008KT 07/07 A2989 RMK A01 T00740074  RH  100%=      5-min Rain = 0
KCL2 110828Z 18008KT 07/07 A2989 RMK A01 T00740074  RH  100%=      5-min Rain = 0
KCL2 110829Z 17011KT 07/07 A2989 RMK A01 T00740074  RH  100%=      5-min Rain = 0
KCL2 110830Z 18011KT 07/07 A2989 RMK A01 T00740074  RH  100%=      5-min Rain = 0
KCL2 110831Z 18010KT 07/07 A2989 RMK A01 T00740074  RH  100%=      5-min Rain = 0
KCL2 110832Z 17009KT 07/07 A2989 RMK A01 T00740074  RH  100%=      5-min Rain = 0
KCL2 110833Z 17009KT 07/07 A2989 RMK A01 T00740074  RH  100%=      5-min Rain = 0
KCL2 110834Z 17010KT 07/07 A2989 RMK A01 T00740074  RH  100%=      5-min Rain = 0
KCL2 110835Z 18007KT 07/07 A2989 RMK A01 T00740074  RH  100%=      5-min Rain = 0
KCL2 110836Z 18009KT 07/08 A2989 RMK A01 T00740075  RH  100%=      5-min Rain = 0
KCL2 110837Z 18010KT 07/07 A2989 RMK A01 T00740074  RH  100%=      5-min Rain = 0
KCL2 110838Z 18011KT 07/07 A2989 RMK A01 T00740074  RH  100%=      5-min Rain = 0
KCL2 110839Z 18011G16KT 07/07 A2989 RMK A01 T00740074  RH  100%=      5-min Rain = 0
KCL2 110840Z 18013KT 07/07 A2989 RMK A01 T00740074  RH  100%=      5-min Rain = 0
KCL2 110841Z 18011KT 07/07 A2989 RMK A01 T00740074  RH  100%=      5-min Rain = 0
KCL2 110842Z 18011KT 07/07 A2989 RMK A01 T00740074  RH  100%=      5-min Rain = 0
KCL2 110843Z 18012KT 07/07 A2989 RMK A01 T00740074  RH  100%=      5-min Rain = 0
KCL2 110844Z 19011KT 07/07 A2989 RMK A01 T00740074  RH  100%=      5-min Rain = 0
KCL2 110845Z 18011KT 07/07 A2989 RMK A01 T00740074  RH  100%=      5-min Rain = 0
KCL2 110846Z 18013KT 07/07 A2989 RMK A01 T00740074  RH  100%=      5-min Rain = 0
KCL2 110847Z 17009KT 07/07 A2989 RMK A01 T00740074  RH  100%=      5-min Rain = 0
KCL2 110848Z 18012KT 07/07 A2989 RMK A01 T00740074  RH  100%=      5-min Rain = 0
KCL2 110849Z 18011KT 07/07 A2989 RMK A01 T00740074  RH  100%=      5-min Rain = 0
KCL2 110850Z 17010KT 07/07 A2989 RMK A01 T00740074  RH  100%=      5-min Rain = 0
KCL2 110851Z 17011KT 07/07 A2989 RMK A01 T00740074  RH  100%=      5-min Rain = 0
KCL2 110852Z 18013KT 07/07 A2989 RMK A01 T00740074  RH  100%=      5-min Rain = 0
KCL2 110853Z 19013KT 07/07 A2989 RMK A01 T00740074  RH  100%=      5-min Rain = 0
KCL2 110854Z 19013KT 07/07 A2989 RMK A01 T00740074  RH  100%=      5-min Rain = 0
KCL2 110855Z 18011KT 08/08 A2989 RMK A01 T00750075  RH  100%=      5-min Rain = 0
KCL2 110856Z 18013KT 07/07 A2989 RMK A01 T00740074  RH  100%=      5-min Rain = 0
KCL2 110857Z 18009KT 07/07 A2989 RMK A01 T00740074  RH  100%=      5-min Rain = 0
KCL2 110858Z 18011KT 07/07 A2989 RMK A01 T00740074  RH  100%=      5-min Rain = 0
KCL2 110859Z 18012KT 08/08 A2989 RMK A01 T00750075  RH  100%=      5-min Rain = 0
KCL2 110900Z 18012KT 08/08 A2989 RMK A01 T00750075  RH  100%=      5-min Rain = 0
KCL2 110901Z 18011KT 08/08 A2989 RMK A01 T00750075  RH  100%=      5-min Rain = 0
KCL2 110902Z 18009KT 08/08 A2989 RMK A01 T00750075  RH  100%=      5-min Rain = 0
KCL2 110903Z 18010KT 08/08 A2988 RMK A01 T00750075  RH  100%=      5-min Rain = 0
KCL2 110904Z 18011KT 08/08 A2988 RMK A01 T00750075  RH  100%=      5-min Rain = 0
KCL2 110905Z 18010KT 08/08 A2988 RMK A01 T00750075  RH  100%=      5-min Rain = 0
KCL2 110906Z 18011KT 08/08 A2988 RMK A01 T00750075  RH  100%=      5-min Rain = 0
KCL2 110907Z 17009KT 08/08 A2988 RMK A01 T00750075  RH  100%=      5-min Rain = 0
KCL2 110908Z 17009KT 08/08 A2988 RMK A01 T00750075  RH  100%=      5-min Rain = 0
KCL2 110909Z 17008KT 08/08 A2988 RMK A01 T00750075  RH  100%=      5-min Rain = 0
KCL2 110910Z 18011KT 08/08 A2988 RMK A01 T00750075  RH  100%=      5-min Rain = 0
KCL2 110911Z 18012KT 08/08 A2988 RMK A01 T00750075  RH  100%=      5-min Rain = 0
KCL2 110912Z 18012KT 08/08 A2988 RMK A01 T00760076  RH  100%=      5-min Rain = 0
KCL2 110913Z 19011KT 08/08 A2988 RMK A01 T00760076  RH  100%=      5-min Rain = 0
KCL2 110914Z 18012KT 08/08 A2987 RMK A01 T00760076  RH  100%=      5-min Rain = 0
KCL2 110915Z 18011KT 08/08 A2987 RMK A01 T00760076  RH  100%=      5-min Rain = 0
KCL2 110916Z 18011KT 08/08 A2988 RMK A01 T00760076  RH  100%=      5-min Rain = 0
KCL2 110917Z 18011KT 08/08 A2988 RMK A01 T00760076  RH  100%=      5-min Rain = 0
KCL2 110918Z 18011KT 08/08 A2988 RMK A01 T00760076  RH  100%=      5-min Rain = 0
KCL2 110919Z 18011G16KT 08/08 A2988 RMK A01 T00760076  RH  100%=      5-min Rain = 0
KCL2 110920Z 18013KT 08/08 A2988 RMK A01 T00760076  RH  100%=      5-min Rain = 0
KCL2 110921Z 18013KT 08/08 A2988 RMK A01 T00760076  RH  100%=      5-min Rain = 0
KCL2 110922Z 18011KT 08/08 A2989 RMK A01 T00760076  RH  100%=      5-min Rain = 0
KCL2 110923Z 18010KT 08/08 A2989 RMK A01 T00760076  RH  100%=      5-min Rain = 0
KCL2 110924Z 19011G16KT 08/08 A2989 RMK A01 T00760076  RH  100%=      5-min Rain = 0
KCL2 110925Z 19011KT 08/08 A2989 RMK A01 T00760076  RH  100%=      5-min Rain = 0
KCL2 110926Z 19011KT 08/08 A2989 RMK A01 T00770077  RH  100%=      5-min Rain = 0
KCL2 110927Z 19010KT 08/08 A2989 RMK A01 T00770077  RH  100%=      5-min Rain = 0
KCL2 110928Z 19011KT 08/08 A2989 RMK A01 T00770077  RH  100%=      5-min Rain = 0
KCL2 110929Z 19010KT 08/08 A2989 RMK A01 T00770077  RH  100%=      5-min Rain = 0
KCL2 110930Z 18011KT 08/08 A2989 RMK A01 T00770077  RH  100%=      5-min Rain = 0
KCL2 110931Z 18011KT 08/08 A2989 RMK A01 T00770077  RH  100%=      5-min Rain = 0
KCL2 110932Z 19010KT 08/08 A2989 RMK A01 T00770077  RH  100%=      5-min Rain = 0
KCL2 110933Z 18012KT 08/08 A2989 RMK A01 T00780078  RH  100%=      5-min Rain = 0
KCL2 110934Z 19011G17KT 08/08 A2989 RMK A01 T00780078  RH  100%=      5-min Rain = 0
KCL2 110935Z 19013KT 08/08 A2989 RMK A01 T00780078  RH  100%=      5-min Rain = 0
KCL2 110936Z 18011G16KT 08/08 A2989 RMK A01 T00780078  RH  100%=      5-min Rain = 0
KCL2 110937Z 18014KT 08/08 A2988 RMK A01 T00780078  RH  100%=      5-min Rain = 0
KCL2 110938Z 19012KT 08/08 A2988 RMK A01 T00780078  RH  100%=      5-min Rain = 0
KCL2 110939Z 18013KT 08/08 A2988 RMK A01 T00780078  RH  100%=      5-min Rain = 0
KCL2 110940Z 18014KT 08/08 A2988 RMK A01 T00790079  RH  100%=      5-min Rain = 0
KCL2 110941Z 18015KT 08/08 A2988 RMK A01 T00790079  RH  100%=      5-min Rain = 0
KCL2 110942Z 18013KT 08/08 A2988 RMK A01 T00790079  RH  100%=      5-min Rain = 0
KCL2 110943Z 19012KT 08/08 A2988 RMK A01 T00790079  RH  100%=      5-min Rain = 0
KCL2 110944Z 19012KT 08/08 A2988 RMK A01 T00790079  RH  100%=      5-min Rain = 0
KCL2 110945Z 19011KT 08/08 A2988 RMK A01 T00790079  RH  100%=      5-min Rain = 0
KCL2 110946Z 19012KT 08/08 A2988 RMK A01 T00800080  RH  100%=      5-min Rain = 0
KCL2 110947Z 19010KT 08/08 A2988 RMK A01 T00800080  RH  100%=      5-min Rain = 0
KCL2 110948Z 19011KT 08/08 A2987 RMK A01 T00800080  RH  100%=      5-min Rain = 0
KCL2 110949Z 18011KT 08/08 A2987 RMK A01 T00800080  RH  100%=      5-min Rain = 0
KCL2 110950Z 18010KT 08/08 A2987 RMK A01 T00800080  RH  100%=      5-min Rain = 0
KCL2 110951Z 19009KT 08/08 A2987 RMK A01 T00800080  RH  100%=      5-min Rain = 0
KCL2 110952Z 19010G15KT 08/08 A2987 RMK A01 T00800080  RH  100%=      5-min Rain = 0
KCL2 110953Z 19012KT 08/08 A2987 RMK A01 T00800080  RH  100%=      5-min Rain = 0
KCL2 110954Z 19012KT 08/08 A2987 RMK A01 T00810081  RH  100%=      5-min Rain = 0
KCL2 110955Z 19015KT 08/08 A2987 RMK A01 T00810081  RH  100%=      5-min Rain = 0
KCL2 110956Z 19013KT 08/08 A2987 RMK A01 T00810081  RH  100%=      5-min Rain = 0
KCL2 110957Z 18014KT 08/08 A2987 RMK A01 T00810081  RH  100%=      5-min Rain = 0
KCL2 110958Z 19012KT 08/08 A2987 RMK A01 T00810081  RH  100%=      5-min Rain = 0
KCL2 110959Z 19012KT 08/08 A2986 RMK A01 T00810081  RH  100%=      5-min Rain = 0
KCL2 111000Z 18013KT 08/08 A2986 RMK A01 T00810081  RH  100%=      5-min Rain = 0
KCL2 111001Z 19013KT 08/08 A2986 RMK A01 T00810081  RH  100%=      5-min Rain = 0
KCL2 111002Z 19011KT 08/08 A2986 RMK A01 T00810082  RH  100%=      5-min Rain = 0
KCL2 111003Z 19011KT 08/08 A2986 RMK A01 T00820082  RH  100%=      5-min Rain = 0
KCL2 111004Z 18012KT 08/08 A2986 RMK A01 T00820082  RH  100%=      5-min Rain = 0
KCL2 111005Z 19013KT 08/08 A2986 RMK A01 T00820082  RH  100%=      5-min Rain = 0
KCL2 111006Z 19011KT 08/08 A2986 RMK A01 T00810082  RH  100%=      5-min Rain = 0
KCL2 111007Z 19011KT 08/08 A2986 RMK A01 T00820082  RH  100%=      5-min Rain = 0
KCL2 111008Z 19012KT 08/08 A2986 RMK A01 T00820082  RH  100%=      5-min Rain = 0
KCL2 111009Z 19013KT 08/08 A2986 RMK A01 T00820082  RH  100%=      5-min Rain = 0
KCL2 111010Z 18012KT 08/08 A2986 RMK A01 T00820082  RH  100%=      5-min Rain = 0
KCL2 111011Z 19012KT 08/08 A2986 RMK A01 T00820082  RH  100%=      5-min Rain = 0
KCL2 111012Z 19011KT 08/08 A2985 RMK A01 T00820082  RH  100%=      5-min Rain = 0
KCL2 111013Z 18010KT 08/08 A2985 RMK A01 T00820082  RH  100%=      5-min Rain = 0
KCL2 111014Z 19011KT 08/08 A2985 RMK A01 T00820082  RH  100%=      5-min Rain = 0
KCL2 111015Z 19009KT 08/08 A2985 RMK A01 T00830083  RH  100%=      5-min Rain = 0
KCL2 111016Z 18012KT 08/08 A2985 RMK A01 T00830083  RH  100%=      5-min Rain = 0
KCL2 111017Z 18012KT 08/08 A2985 RMK A01 T00830083  RH  100%=      5-min Rain = 0
KCL2 111018Z 18013KT 08/08 A2985 RMK A01 T00830083  RH  100%=      5-min Rain = 0
KCL2 111019Z 18009KT 08/08 A2985 RMK A01 T00830083  RH  100%=      5-min Rain = 0
KCL2 111020Z 19011KT 08/08 A2985 RMK A01 T00830083  RH  100%=      5-min Rain = 0
KCL2 111021Z 19010KT 08/08 A2985 RMK A01 T00830083  RH  100%=      5-min Rain = 0
KCL2 111022Z 19011KT 08/08 A2985 RMK A01 T00830083  RH  100%=      5-min Rain = 0
KCL2 111023Z 19009KT 08/08 A2985 RMK A01 T00830083  RH  100%=      5-min Rain = 0
KCL2 111024Z 19010KT 08/08 A2985 RMK A01 T00830083  RH  100%=      5-min Rain = 0
KCL2 111025Z 19008KT 08/08 A2985 RMK A01 T00830083  RH  100%=      5-min Rain = 0
KCL2 111026Z 19010KT 08/08 A2985 RMK A01 T00830083  RH  100%=      5-min Rain = 0
KCL2 111027Z 19010KT 08/08 A2985 RMK A01 T00830083  RH  100%=      5-min Rain = 0
KCL2 111028Z 19010KT 08/08 A2984 RMK A01 T00830084  RH  100%=      5-min Rain = 0
KCL2 111029Z 19011KT 08/08 A2984 RMK A01 T00840084  RH  100%=      5-min Rain = 0
KCL2 111030Z 19011KT 08/08 A2984 RMK A01 T00840084  RH  100%=      5-min Rain = 0
KCL2 111031Z 20012KT 08/08 A2984 RMK A01 T00840084  RH  100%=      5-min Rain = 0
KCL2 111032Z 19009KT 08/08 A2984 RMK A01 T00840084  RH  100%=      5-min Rain = 0
KCL2 111033Z 19010KT 08/08 A2984 RMK A01 T00840084  RH  100%=      5-min Rain = 0
KCL2 111034Z 19009KT 08/08 A2984 RMK A01 T00840084  RH  100%=      5-min Rain = 0
KCL2 111035Z 19009KT 08/08 A2983 RMK A01 T00840084  RH  100%=      5-min Rain = 0
KCL2 111036Z 18009KT 09/09 A2983 RMK A01 T00850085  RH  100%=      5-min Rain = 0
KCL2 111037Z 19009G14KT 08/08 A2983 RMK A01 T00840084  RH  100%=      5-min Rain = 0
KCL2 111038Z 19010KT 09/09 A2983 RMK A01 T00850085  RH  100%=      5-min Rain = 0
KCL2 111039Z 19011G16KT 08/08 A2983 RMK A01 T00840084  RH  100%=      5-min Rain = 0
KCL2 111040Z 19011KT 09/09 A2983 RMK A01 T00850085  RH  100%=      5-min Rain = 0
KCL2 111041Z 18011KT 09/09 A2983 RMK A01 T00850085  RH  100%=      5-min Rain = 0
KCL2 111042Z 19011KT 09/09 A2983 RMK A01 T00850085  RH  100%=      5-min Rain = 0
KCL2 111043Z 19010KT 09/09 A2983 RMK A01 T00850085  RH  100%=      5-min Rain = 0
KCL2 111044Z 20011KT 09/09 A2983 RMK A01 T00850085  RH  100%=      5-min Rain = 0
KCL2 111045Z 19010KT 09/09 A2984 RMK A01 T00850085  RH  100%=      5-min Rain = 0
KCL2 111046Z 19011KT 09/09 A2984 RMK A01 T00850085  RH  100%=      5-min Rain = 0
KCL2 111047Z 20010KT 09/09 A2984 RMK A01 T00850085  RH  100%=      5-min Rain = 0
KCL2 111048Z 19013KT 09/09 A2984 RMK A01 T00850085  RH  100%=      5-min Rain = 0
KCL2 111049Z 20011KT 09/09 A2984 RMK A01 T00850085  RH  100%=      5-min Rain = 0
KCL2 111050Z 19011KT 09/09 A2984 RMK A01 T00850085  RH  100%=      5-min Rain = 0
KCL2 111051Z 19009KT 09/09 A2984 RMK A01 T00850085  RH  100%=      5-min Rain = 0
KCL2 111052Z 19013KT 09/09 A2984 RMK A01 T00850085  RH  100%=      5-min Rain = 0
KCL2 111053Z 19012KT 09/09 A2984 RMK A01 T00850085  RH  100%=      5-min Rain = 0
KCL2 111054Z 19011KT 09/09 A2984 RMK A01 T00850085  RH  100%=      5-min Rain = 0
KCL2 111055Z 19011KT 09/09 A2984 RMK A01 T00850085  RH  100%=      5-min Rain = 0
KCL2 111056Z 19009KT 09/09 A2984 RMK A01 T00850085  RH  100%=      5-min Rain = 0
KCL2 111057Z 21011KT 09/09 A2984 RMK A01 T00850085  RH  100%=      5-min Rain = 0
KCL2 111058Z 20009KT 09/09 A2984 RMK A01 T00850085  RH  100%=      5-min Rain = 0
KCL2 111059Z 20008KT 09/09 A2985 RMK A01 T00850085  RH  100%=      5-min Rain = 0
KCL2 111100Z 20011KT 09/09 A2985 RMK A01 T00850085  RH  100%=      5-min Rain = 0
KCL2 111101Z 20010KT 09/09 A2985 RMK A01 T00850085  RH  100%=      5-min Rain = 0
KCL2 111102Z 20010KT 09/09 A2985 RMK A01 T00850085  RH  100%=      5-min Rain = 0
KCL2 111103Z 21009KT 09/09 A2985 RMK A01 T00850085  RH  100%=      5-min Rain = 0
KCL2 111104Z 21010KT 09/09 A2985 RMK A01 T00850085  RH  100%=      5-min Rain = 0
KCL2 111105Z 21009KT 09/09 A2985 RMK A01 T00850085  RH  100%=      5-min Rain = 0
KCL2 111106Z 20007KT 09/09 A2985 RMK A01 T00850085  RH  100%=      5-min Rain = 0
KCL2 111107Z 20007KT 09/09 A2985 RMK A01 T00850085  RH  100%=      5-min Rain = 0
KCL2 111108Z 21011KT 09/09 A2985 RMK A01 T00850085  RH  100%=      5-min Rain = 0
KCL2 111109Z 21010KT 09/09 A2985 RMK A01 T00850085  RH  100%=      5-min Rain = 0
KCL2 111110Z 21012G18KT 09/09 A2985 RMK A01 T00850085  RH  100%=      5-min Rain = 0
KCL2 111111Z 21013KT 09/09 A2985 RMK A01 T00850085  RH  100%=      5-min Rain = 0
KCL2 111112Z 20012KT 09/09 A2985 RMK A01 T00850085  RH  100%=      5-min Rain = 0
KCL2 111113Z 21013KT 09/09 A2985 RMK A01 T00850085  RH  100%=      5-min Rain = 0
KCL2 111114Z 20013KT 09/09 A2985 RMK A01 T00850085  RH  100%=      5-min Rain = 0
KCL2 111115Z 20013G18KT 09/09 A2985 RMK A01 T00850085  RH  100%=      5-min Rain = 0
KCL2 111116Z 21013KT 09/09 A2985 RMK A01 T00850085  RH  100%=      5-min Rain = 0
KCL2 111117Z 21015G20KT 09/09 A2985 RMK A01 T00850085  RH  100%=      5-min Rain = 0
KCL2 111118Z 21017KT 09/09 A2985 RMK A01 T00850085  RH  100%=      5-min Rain = 0
KCL2 111119Z 21012KT 09/09 A2985 RMK A01 T00850085  RH  100%=      5-min Rain = 0
KCL2 111120Z 21015G20KT 09/09 A2985 RMK A01 T00850085  RH  100%=      5-min Rain = 0
KCL2 111121Z 21011KT 09/09 A2985 RMK A01 T00850085  RH  100%=      5-min Rain = 0
KCL2 111122Z 21013G18KT 09/09 A2985 RMK A01 T00850085  RH  100%=      5-min Rain = 0
KCL2 111123Z 21015KT 09/09 A2985 RMK A01 T00850085  RH  100%=      5-min Rain = 0
KCL2 111124Z 21014KT 09/09 A2984 RMK A01 T00850085  RH  100%=      5-min Rain = 0
KCL2 111125Z 21015KT 09/09 A2984 RMK A01 T00850086  RH  100%=      5-min Rain = 0
KCL2 111126Z 21013KT 09/09 A2984 RMK A01 T00850085  RH  100%=      5-min Rain = 0
KCL2 111127Z 21017KT 09/09 A2984 RMK A01 T00850085  RH  100%=      5-min Rain = 0
KCL2 111128Z 21014KT 09/09 A2984 RMK A01 T00850085  RH  100%=      5-min Rain = 0
KCL2 111129Z 20015KT 09/09 A2984 RMK A01 T00850086  RH  100%=      5-min Rain = 0
KCL2 111130Z 21015KT 09/09 A2984 RMK A01 T00850085  RH  100%=      5-min Rain = 0
KCL2 111131Z 21017KT 09/09 A2984 RMK A01 T00860086  RH  100%=      5-min Rain = 0
KCL2 111132Z 21015KT 09/09 A2984 RMK A01 T00850085  RH  100%=      5-min Rain = 0
KCL2 111133Z 21017KT 09/09 A2984 RMK A01 T00860086  RH  100%=      5-min Rain = 0
KCL2 111134Z 21017G22KT 09/09 A2984 RMK A01 T00850085  RH  100%=      5-min Rain = 0
KCL2 111135Z 21015KT 09/09 A2984 RMK A01 T00860085  RH  100%=      5-min Rain = 0
KCL2 111136Z 21014KT 09/09 A2984 RMK A01 T00860086  RH  100%=      5-min Rain = 0
KCL2 111137Z 20018G24KT 09/09 A2984 RMK A01 T00860085  RH  100%=      5-min Rain = 0
KCL2 111138Z 21016G21KT 09/09 A2984 RMK A01 T00860085  RH  100%=      5-min Rain = 0
KCL2 111139Z 21016G21KT 09/09 A2984 RMK A01 T00860085  RH  099%=      5-min Rain = 0
KCL2 111140Z 21014KT 09/09 A2984 RMK A01 T00870085  RH  099%=      5-min Rain = 0
KCL2 111141Z 21012KT 09/08 A2984 RMK A01 T00870084  RH  098%=      5-min Rain = 0
KCL2 111142Z 21015KT 09/08 A2984 RMK A01 T00870084  RH  098%=      5-min Rain = 0
KCL2 111143Z 21015KT 09/08 A2984 RMK A01 T00870084  RH  098%=      5-min Rain = 0
KCL2 111144Z 21015G22KT 09/08 A2985 RMK A01 T00870083  RH  097%=      5-min Rain = 0
KCL2 111145Z 21018KT 09/08 A2985 RMK A01 T00870083  RH  097%=      5-min Rain = 0
KCL2 111146Z 22015KT 09/08 A2985 RMK A01 T00880082  RH  097%=      5-min Rain = 0
KCL2 111147Z 23014G20KT 09/08 A2985 RMK A01 T00880082  RH  096%=      5-min Rain = 0
KCL2 111148Z 23014G19KT 09/08 A2986 RMK A01 T00870081  RH  096%=      5-min Rain = 0
KCL2 111149Z 24014KT 09/08 A2986 RMK A01 T00880081  RH  096%=      5-min Rain = 0
KCL2 111150Z 24012KT 09/08 A2986 RMK A01 T00880081  RH  095%=      5-min Rain = 0
KCL2 111151Z 25010G15KT 09/08 A2986 RMK A01 T00880080  RH  095%=      5-min Rain = 0
KCL2 111152Z 26012G18KT 09/08 A2986 RMK A01 T00880080  RH  095%=      5-min Rain = 0
KCL2 111153Z 26013KT 09/08 A2986 RMK A01 T00880080  RH  095%=      5-min Rain = 0
KCL2 111154Z 26010KT 09/08 A2986 RMK A01 T00880080  RH  095%=      5-min Rain = 0
KCL2 111155Z 26011KT 09/08 A2986 RMK A01 T00870080  RH  095%=      5-min Rain = 0
KCL2 111156Z 25009KT 09/08 A2986 RMK A01 T00870079  RH  095%=      5-min Rain = 0
KCL2 111157Z 24010KT 09/08 A2986 RMK A01 T00870079  RH  095%=      5-min Rain = 0
KCL2 111158Z 23011KT 09/08 A2986 RMK A01 T00870079  RH  095%=      5-min Rain = 0
KCL2 111159Z 24012KT 09/08 A2986 RMK A01 T00860079  RH  095%=      5-min Rain = 0
KCL2 111200Z 23013KT 09/08 A2986 RMK A01 T00860078  RH  095%=      5-min Rain = 0
KCL2 111201Z 23010KT 09/08 A2986 RMK A01 T00860078  RH  095%=      5-min Rain = 0
KCL2 111202Z 22010KT 09/08 A2985 RMK A01 T00860078  RH  095%=      5-min Rain = 0
KCL2 111203Z 22012KT 09/08 A2985 RMK A01 T00860078  RH  095%=      5-min Rain = 0
KCL2 111204Z 22011KT 09/08 A2985 RMK A01 T00860078  RH  095%=      5-min Rain = 0
KCL2 111205Z 23014KT 09/08 A2985 RMK A01 T00860078  RH  095%=      5-min Rain = 0
KCL2 111206Z 23012KT 09/08 A2986 RMK A01 T00860078  RH  095%=      5-min Rain = 0
KCL2 111207Z 23010KT 09/08 A2986 RMK A01 T00860078  RH  095%=      5-min Rain = 0
KCL2 111208Z 23012KT 09/08 A2986 RMK A01 T00860078  RH  095%=      5-min Rain = 0
KCL2 111209Z 23012KT 09/08 A2986 RMK A01 T00850078  RH  095%=      5-min Rain = 0
KCL2 111210Z 23013KT 09/08 A2985 RMK A01 T00860079  RH  096%=      5-min Rain = 0
KCL2 111211Z 23014KT 09/08 A2985 RMK A01 T00850078  RH  095%=      5-min Rain = 0
KCL2 111212Z 22013KT 09/08 A2985 RMK A01 T00850078  RH  095%=      5-min Rain = 0
KCL2 111213Z 22012KT 09/08 A2985 RMK A01 T00850078  RH  095%=      5-min Rain = 0
KCL2 111214Z 22013KT 09/08 A2985 RMK A01 T00850078  RH  095%=      5-min Rain = 0
KCL2 111215Z 22012KT 09/08 A2985 RMK A01 T00850078  RH  095%=      5-min Rain = 0
KCL2 111216Z 22015KT 09/08 A2985 RMK A01 T00850078  RH  095%=      5-min Rain = 0
KCL2 111217Z 22016KT 09/08 A2985 RMK A01 T00850078  RH  095%=      5-min Rain = 0
KCL2 111218Z 22015KT 09/08 A2985 RMK A01 T00850078  RH  095%=      5-min Rain = 0
KCL2 111219Z 22015KT 09/08 A2985 RMK A01 T00850077  RH  095%=      5-min Rain = 0
KCL2 111220Z 21014KT 09/08 A2985 RMK A01 T00850077  RH  095%=      5-min Rain = 0
KCL2 111221Z 22014KT 09/08 A2985 RMK A01 T00850077  RH  095%=      5-min Rain = 0
KCL2 111222Z 22013KT 09/08 A2985 RMK A01 T00850077  RH  095%=      5-min Rain = 0
KCL2 111223Z 21013KT 09/08 A2985 RMK A01 T00850077  RH  095%=      5-min Rain = 0
KCL2 111224Z 21012KT 09/08 A2985 RMK A01 T00850077  RH  095%=      5-min Rain = 0
KCL2 111225Z 21012KT 08/08 A2985 RMK A01 T00840077  RH  095%=      5-min Rain = 0
KCL2 111226Z 22012KT 08/08 A2985 RMK A01 T00840077  RH  095%=      5-min Rain = 0
KCL2 111227Z 22013KT 08/08 A2985 RMK A01 T00840077  RH  095%=      5-min Rain = 0
KCL2 111228Z 22014KT 08/08 A2985 RMK A01 T00830077  RH  096%=      5-min Rain = 0
KCL2 111229Z 22013KT 08/08 A2985 RMK A01 T00840077  RH  095%=      5-min Rain = 0
KCL2 111230Z 22014KT 08/08 A2985 RMK A01 T00840076  RH  095%=      5-min Rain = 0
KCL2 111231Z 22013KT 08/08 A2985 RMK A01 T00840076  RH  095%=      5-min Rain = 0
KCL2 111232Z 22013KT 08/08 A2985 RMK A01 T00840077  RH  095%=      5-min Rain = 0
KCL2 111233Z 22014KT 08/08 A2985 RMK A01 T00840076  RH  095%=      5-min Rain = 0
KCL2 111234Z 22014KT 08/08 A2985 RMK A01 T00840077  RH  095%=      5-min Rain = 0
KCL2 111235Z 22013KT 08/08 A2985 RMK A01 T00840077  RH  095%=      5-min Rain = 0
KCL2 111236Z 21014KT 08/08 A2985 RMK A01 T00840076  RH  095%=      5-min Rain = 0
KCL2 111237Z 22015KT 08/08 A2985 RMK A01 T00840077  RH  095%=      5-min Rain = 0
KCL2 111238Z 21013KT 08/08 A2985 RMK A01 T00840077  RH  095%=      5-min Rain = 0
KCL2 111239Z 21014KT 08/08 A2985 RMK A01 T00840077  RH  095%=      5-min Rain = 0
KCL2 111240Z 21014KT 08/08 A2985 RMK A01 T00840076  RH  095%=      5-min Rain = 0
KCL2 111241Z 21013KT 08/08 A2985 RMK A01 T00830076  RH  095%=      5-min Rain = 0
KCL2 111242Z 21013KT 08/08 A2985 RMK A01 T00840076  RH  095%=      5-min Rain = 0
KCL2 111243Z 21014KT 08/08 A2985 RMK A01 T00840076  RH  095%=      5-min Rain = 0
KCL2 111244Z 21013KT 08/08 A2984 RMK A01 T00830076  RH  095%=      5-min Rain = 0
KCL2 111245Z 21013KT 08/08 A2985 RMK A01 T00830076  RH  095%=      5-min Rain = 0
KCL2 111246Z 21014KT 08/08 A2984 RMK A01 T00840076  RH  095%=      5-min Rain = 0
KCL2 111247Z 21014KT 08/08 A2984 RMK A01 T00840076  RH  095%=      5-min Rain = 0
KCL2 111248Z 21013KT 08/08 A2985 RMK A01 T00840076  RH  094%=      5-min Rain = 0
KCL2 111249Z 21015KT 08/08 A2985 RMK A01 T00840075  RH  094%=      5-min Rain = 0
KCL2 111250Z 21015KT 08/08 A2985 RMK A01 T00840075  RH  094%=      5-min Rain = 0
KCL2 111251Z 21013KT 08/08 A2985 RMK A01 T00840075  RH  094%=      5-min Rain = 0
KCL2 111252Z 21013KT 08/08 A2985 RMK A01 T00840075  RH  094%=      5-min Rain = 0
KCL2 111253Z 21012KT 08/08 A2985 RMK A01 T00840075  RH  094%=      5-min Rain = 0
KCL2 111254Z 21011KT 08/08 A2985 RMK A01 T00840075  RH  094%=      5-min Rain = 0
KCL2 111255Z 22011KT 08/08 A2985 RMK A01 T00840075  RH  094%=      5-min Rain = 0
KCL2 111256Z 22011KT 08/08 A2985 RMK A01 T00840075  RH  094%=      5-min Rain = 0
KCL2 111257Z 22010KT 08/08 A2985 RMK A01 T00840075  RH  094%=      5-min Rain = 0
KCL2 111258Z 22010KT 08/08 A2985 RMK A01 T00840075  RH  094%=      5-min Rain = 0
KCL2 111259Z 22009KT 08/08 A2985 RMK A01 T00840075  RH  094%=      5-min Rain = 0
KCL2 111300Z 21009KT 08/08 A2985 RMK A01 T00840075  RH  094%=      5-min Rain = 0
KCL2 111301Z 21009KT 08/08 A2985 RMK A01 T00840075  RH  094%=      5-min Rain = 0
KCL2 111302Z 22011KT 08/08 A2985 RMK A01 T00830075  RH  094%=      5-min Rain = 0
KCL2 111303Z 22009KT 08/07 A2985 RMK A01 T00830074  RH  094%=      5-min Rain = 0
KCL2 111304Z 21010KT 08/07 A2985 RMK A01 T00830074  RH  094%=      5-min Rain = 0
KCL2 111305Z 21009KT 08/07 A2985 RMK A01 T00830074  RH  094%=      5-min Rain = 0
KCL2 111306Z 21008KT 08/07 A2985 RMK A01 T00830074  RH  094%=      5-min Rain = 0
KCL2 111307Z 22009KT 08/07 A2985 RMK A01 T00840074  RH  094%=      5-min Rain = 0
KCL2 111308Z 21010KT 08/07 A2985 RMK A01 T00840074  RH  094%=      5-min Rain = 0
KCL2 111309Z 22010KT 08/07 A2985 RMK A01 T00840074  RH  093%=      5-min Rain = 0
KCL2 111310Z 22010KT 08/07 A2985 RMK A01 T00840074  RH  093%=      5-min Rain = 0
KCL2 111311Z 21010KT 08/07 A2985 RMK A01 T00840074  RH  093%=      5-min Rain = 0
KCL2 111312Z 22010KT 08/07 A2985 RMK A01 T00840074  RH  093%=      5-min Rain = 0
KCL2 111313Z 21008KT 08/07 A2985 RMK A01 T00840073  RH  093%=      5-min Rain = 0
KCL2 111314Z 21009KT 08/07 A2985 RMK A01 T00840074  RH  093%=      5-min Rain = 0
KCL2 111315Z 21010KT 08/07 A2985 RMK A01 T00840073  RH  093%=      5-min Rain = 0
KCL2 111316Z 21010KT 09/07 A2985 RMK A01 T00850073  RH  093%=      5-min Rain = 0
KCL2 111317Z 20012KT 09/07 A2985 RMK A01 T00850073  RH  093%=      5-min Rain = 0
KCL2 111318Z 21011KT 08/07 A2985 RMK A01 T00840073  RH  093%=      5-min Rain = 0
KCL2 111319Z 20010KT 09/07 A2985 RMK A01 T00850073  RH  093%=      5-min Rain = 0
KCL2 111320Z 21012KT 08/07 A2985 RMK A01 T00840073  RH  093%=      5-min Rain = 0
KCL2 111321Z 20013KT 09/07 A2985 RMK A01 T00850073  RH  093%=      5-min Rain = 0
KCL2 111322Z 21011KT 08/07 A2985 RMK A01 T00840073  RH  093%=      5-min Rain = 0
KCL2 111323Z 21012KT 08/07 A2985 RMK A01 T00840073  RH  093%=      5-min Rain = 0
KCL2 111324Z 21013KT 08/07 A2985 RMK A01 T00840073  RH  093%=      5-min Rain = 0
KCL2 111325Z 21011KT 08/07 A2985 RMK A01 T00840073  RH  093%=      5-min Rain = 0
KCL2 111326Z 21010KT 08/07 A2985 RMK A01 T00840073  RH  093%=      5-min Rain = 0
KCL2 111327Z 21012KT 08/07 A2984 RMK A01 T00840074  RH  093%=      5-min Rain = 0
KCL2 111328Z 21012KT 08/07 A2984 RMK A01 T00840073  RH  093%=      5-min Rain = 0
KCL2 111329Z 21011KT 08/07 A2984 RMK A01 T00840073  RH  093%=      5-min Rain = 0
KCL2 111330Z 21012KT 08/07 A2984 RMK A01 T00840073  RH  093%=      5-min Rain = 0
KCL2 111331Z 21012KT 08/07 A2984 RMK A01 T00840073  RH  093%=      5-min Rain = 0
KCL2 111332Z 21010KT 08/07 A2984 RMK A01 T00840073  RH  093%=      5-min Rain = 0
KCL2 111333Z 21010KT 08/07 A2984 RMK A01 T00840073  RH  093%=      5-min Rain = 0
KCL2 111334Z 21012KT 08/07 A2984 RMK A01 T00840073  RH  093%=      5-min Rain = 0
KCL2 111335Z 21011KT 08/07 A2984 RMK A01 T00840073  RH  093%=      5-min Rain = 0
KCL2 111336Z 21010KT 08/07 A2984 RMK A01 T00840073  RH  093%=      5-min Rain = 0
KCL2 111337Z 21010KT 08/07 A2984 RMK A01 T00840073  RH  093%=      5-min Rain = 0
KCL2 111338Z 21010KT 08/07 A2984 RMK A01 T00840073  RH  093%=      5-min Rain = 0
KCL2 111339Z 21011KT 08/07 A2984 RMK A01 T00840072  RH  092%=      5-min Rain = 0
KCL2 111340Z 21009KT 08/07 A2984 RMK A01 T00840072  RH  092%=      5-min Rain = 0
KCL2 111341Z 21009KT 08/07 A2983 RMK A01 T00840072  RH  092%=      5-min Rain = 0
KCL2 111342Z 22008KT 09/07 A2983 RMK A01 T00850072  RH  092%=      5-min Rain = 0
KCL2 111343Z 22007KT 09/07 A2983 RMK A01 T00850072  RH  092%=      5-min Rain = 0
KCL2 111344Z 22009KT 08/07 A2983 RMK A01 T00840073  RH  092%=      5-min Rain = 0
KCL2 111345Z 22009KT 08/07 A2984 RMK A01 T00840073  RH  092%=      5-min Rain = 0
KCL2 111351Z 22007KT 08/07 A2984 RMK A01 T00840072  RH  092%=      5-min Rain = 0
KCL2 111352Z 22007KT 08/07 A2984 RMK A01 T00840072  RH  092%=      5-min Rain = 0
KCL2 111353Z 22007KT 08/07 A2984 RMK A01 T00840073  RH  092%=      5-min Rain = 0
KCL2 111354Z 22008KT 08/07 A2984 RMK A01 T00840073  RH  093%=      5-min Rain = 0
KCL2 111355Z 22008KT 08/07 A2984 RMK A01 T00840073  RH  093%=      5-min Rain = 0
KCL2 111356Z 22008KT 08/07 A2984 RMK A01 T00840073  RH  093%=      5-min Rain = 0
KCL2 111357Z 21008KT 08/07 A2984 RMK A01 T00840072  RH  092%=      5-min Rain = 0
KCL2 111358Z 21009KT 08/07 A2984 RMK A01 T00840072  RH  092%=      5-min Rain = 0
KCL2 111359Z 21008KT 08/07 A2984 RMK A01 T00840072  RH  092%=      5-min Rain = 0
KCL2 111400Z 21008KT 08/07 A2984 RMK A01 T00840072  RH  092%=      5-min Rain = 0
KCL2 111401Z 22008KT 08/07 A2984 RMK A01 T00840072  RH  092%=      5-min Rain = 0
KCL2 111402Z 22009KT 08/07 A2984 RMK A01 T00840073  RH  092%=      5-min Rain = 0
KCL2 111403Z 21009KT 08/07 A2984 RMK A01 T00840072  RH  092%=      5-min Rain = 0
KCL2 111404Z 21007KT 08/07 A2984 RMK A01 T00840072  RH  092%=      5-min Rain = 0
KCL2 111405Z 20007KT 08/07 A2984 RMK A01 T00840072  RH  092%=      5-min Rain = 0
KCL2 111406Z 19006KT 08/07 A2984 RMK A01 T00840072  RH  092%=      5-min Rain = 0
KCL2 111407Z 19007KT 08/07 A2984 RMK A01 T00840073  RH  092%=      5-min Rain = 0
KCL2 111408Z 20007KT 09/07 A2984 RMK A01 T00850073  RH  092%=      5-min Rain = 0
KCL2 111409Z 20006KT 08/07 A2984 RMK A01 T00840073  RH  093%=      5-min Rain = 0
KCL2 111410Z 21006KT 08/07 A2984 RMK A01 T00840074  RH  093%=      5-min Rain = 0
KCL2 111411Z 20006KT 08/07 A2984 RMK A01 T00840074  RH  093%=      5-min Rain = 0
KCL2 111412Z 21006KT 09/07 A2984 RMK A01 T00850074  RH  093%=      5-min Rain = 0
KCL2 111413Z 20006KT 08/07 A2984 RMK A01 T00840074  RH  093%=      5-min Rain = 0
KCL2 111414Z 20009KT 08/07 A2984 RMK A01 T00840074  RH  093%=      5-min Rain = 0
KCL2 111415Z 20009KT 08/07 A2984 RMK A01 T00840074  RH  093%=      5-min Rain = 0
KCL2 111416Z 20012KT 08/07 A2984 RMK A01 T00840074  RH  093%=      5-min Rain = 0
KCL2 111417Z 20012KT 08/07 A2984 RMK A01 T00840073  RH  093%=      5-min Rain = 0
KCL2 111418Z 20010KT 08/07 A2984 RMK A01 T00840073  RH  093%=      5-min Rain = 0
KCL2 111419Z 20010KT 08/07 A2984 RMK A01 T00840073  RH  093%=      5-min Rain = 0
KCL2 111420Z 20009KT 08/07 A2984 RMK A01 T00840073  RH  093%=      5-min Rain = 0
KCL2 111421Z 20009KT 08/07 A2984 RMK A01 T00840073  RH  093%=      5-min Rain = 0
KCL2 111422Z 20011KT 09/07 A2984 RMK A01 T00850073  RH  093%=      5-min Rain = 0
KCL2 111423Z 20009KT 08/07 A2984 RMK A01 T00840073  RH  093%=      5-min Rain = 0
KCL2 111424Z 20010KT 08/07 A2984 RMK A01 T00840073  RH  093%=      5-min Rain = 0
KCL2 111425Z 20009KT 08/07 A2984 RMK A01 T00840073  RH  093%=      5-min Rain = 0
KCL2 111426Z 20010KT 09/07 A2984 RMK A01 T00850074  RH  093%=      5-min Rain = 0
KCL2 111427Z 20008KT 08/07 A2984 RMK A01 T00840073  RH  093%=      5-min Rain = 0
KCL2 111428Z 20007KT 09/07 A2984 RMK A01 T00850074  RH  093%=      5-min Rain = 0
KCL2 111429Z 21010KT 08/07 A2984 RMK A01 T00840073  RH  093%=      5-min Rain = 0
KCL2 111430Z 21008KT 08/07 A2984 RMK A01 T00840073  RH  093%=      5-min Rain = 0
KCL2 111431Z 21008KT 08/07 A2984 RMK A01 T00840073  RH  093%=      5-min Rain = 0
KCL2 111432Z 21009KT 09/07 A2984 RMK A01 T00850073  RH  093%=      5-min Rain = 0
KCL2 111433Z 21009KT 09/07 A2984 RMK A01 T00850073  RH  093%=      5-min Rain = 0
KCL2 111434Z 21009KT 08/07 A2984 RMK A01 T00840073  RH  093%=      5-min Rain = 0
KCL2 111435Z 21010KT 09/07 A2984 RMK A01 T00850073  RH  093%=      5-min Rain = 0
KCL2 111436Z 20009KT 09/07 A2984 RMK A01 T00850073  RH  092%=      5-min Rain = 0
KCL2 111437Z 20009KT 09/07 A2984 RMK A01 T00850073  RH  092%=      5-min Rain = 0
KCL2 111438Z 20009KT 09/07 A2984 RMK A01 T00850073  RH  092%=      5-min Rain = 0
KCL2 111439Z 19008KT 09/07 A2984 RMK A01 T00850073  RH  092%=      5-min Rain = 0
KCL2 111440Z 20008KT 09/07 A2984 RMK A01 T00850074  RH  092%=      5-min Rain = 0
KCL2 111441Z 21007KT 09/07 A2984 RMK A01 T00850074  RH  093%=      5-min Rain = 0
KCL2 111442Z 21008KT 09/07 A2984 RMK A01 T00850074  RH  092%=      5-min Rain = 0
KCL2 111443Z 20007KT 09/07 A2984 RMK A01 T00850073  RH  092%=      5-min Rain = 0
KCL2 111444Z 20008KT 09/07 A2984 RMK A01 T00850073  RH  092%=      5-min Rain = 0
KCL2 111445Z 20008KT 09/07 A2984 RMK A01 T00850073  RH  092%=      5-min Rain = 0
KCL2 111446Z 20008KT 09/07 A2984 RMK A01 T00860073  RH  092%=      5-min Rain = 0
KCL2 111447Z 20009KT 09/07 A2984 RMK A01 T00860073  RH  092%=      5-min Rain = 0
KCL2 111448Z 20008KT 09/07 A2984 RMK A01 T00860073  RH  092%=      5-min Rain = 0
KCL2 111449Z 19007KT 09/07 A2985 RMK A01 T00860073  RH  092%=      5-min Rain = 0
KCL2 111450Z 20007KT 09/07 A2985 RMK A01 T00860074  RH  092%=      5-min Rain = 0
KCL2 111451Z 20008KT 09/07 A2985 RMK A01 T00860074  RH  092%=      5-min Rain = 0
KCL2 111452Z 20007KT 09/07 A2985 RMK A01 T00860074  RH  092%=      5-min Rain = 0
KCL2 111453Z 20008KT 09/07 A2985 RMK A01 T00860074  RH  092%=      5-min Rain = 0
KCL2 111454Z 20009KT 09/07 A2985 RMK A01 T00860073  RH  092%=      5-min Rain = 0
KCL2 111455Z 20008KT 09/07 A2985 RMK A01 T00860073  RH  091%=      5-min Rain = 0
KCL2 111456Z 20009KT 09/07 A2985 RMK A01 T00870073  RH  091%=      5-min Rain = 0
KCL2 111457Z 20010KT 09/07 A2985 RMK A01 T00870073  RH  091%=      5-min Rain = 0
KCL2 111458Z 21008KT 09/07 A2985 RMK A01 T00870073  RH  091%=      5-min Rain = 0
KCL2 111459Z 21008KT 09/07 A2985 RMK A01 T00870073  RH  091%=      5-min Rain = 0
KCL2 111500Z 21011KT 09/07 A2985 RMK A01 T00870073  RH  091%=      5-min Rain = 0
KCL2 111501Z 22007KT 09/07 A2985 RMK A01 T00870073  RH  091%=      5-min Rain = 0
KCL2 111502Z 22008KT 09/07 A2985 RMK A01 T00870073  RH  091%=      5-min Rain = 0
KCL2 111503Z 21007KT 09/07 A2985 RMK A01 T00870073  RH  091%=      5-min Rain = 0
KCL2 111504Z 22009KT 09/07 A2986 RMK A01 T00870073  RH  091%=      5-min Rain = 0
KCL2 111505Z 22009KT 09/07 A2986 RMK A01 T00870073  RH  091%=      5-min Rain = 0
KCL2 111506Z 23008KT 09/07 A2986 RMK A01 T00880073  RH  091%=      5-min Rain = 0
KCL2 111507Z 23007KT 09/07 A2986 RMK A01 T00880073  RH  090%=      5-min Rain = 0
KCL2 111508Z 23009KT 09/07 A2986 RMK A01 T00880073  RH  090%=      5-min Rain = 0
KCL2 111509Z 23009KT 09/07 A2986 RMK A01 T00880073  RH  090%=      5-min Rain = 0
KCL2 111510Z 22011KT 09/07 A2987 RMK A01 T00880073  RH  090%=      5-min Rain = 0
KCL2 111511Z 22010KT 09/07 A2986 RMK A01 T00880073  RH  090%=      5-min Rain = 0
KCL2 111512Z 21009KT 09/07 A2986 RMK A01 T00880073  RH  090%=      5-min Rain = 0
KCL2 111513Z 21008KT 09/07 A2986 RMK A01 T00880073  RH  090%=      5-min Rain = 0
KCL2 111514Z 21008KT 09/07 A2986 RMK A01 T00880073  RH  090%=      5-min Rain = 0
KCL2 111515Z 20007KT 09/07 A2986 RMK A01 T00880073  RH  090%=      5-min Rain = 0
KCL2 111516Z 21008KT 09/07 A2986 RMK A01 T00880073  RH  090%=      5-min Rain = 0
KCL2 111517Z 21007KT 09/07 A2986 RMK A01 T00880074  RH  090%=      5-min Rain = 0
KCL2 111518Z 21008KT 09/07 A2986 RMK A01 T00880073  RH  090%=      5-min Rain = 0
KCL2 111519Z 21008KT 09/07 A2986 RMK A01 T00890074  RH  091%=      5-min Rain = 0
KCL2 111520Z 22009KT 09/07 A2986 RMK A01 T00890074  RH  091%=      5-min Rain = 0
KCL2 111521Z 21009KT 09/07 A2986 RMK A01 T00890073  RH  090%=      5-min Rain = 0
KCL2 111522Z 20008KT 09/07 A2986 RMK A01 T00890074  RH  090%=      5-min Rain = 0
KCL2 111523Z 20008KT 09/07 A2986 RMK A01 T00890074  RH  090%=      5-min Rain = 0
KCL2 111524Z 21010KT 09/07 A2986 RMK A01 T00890074  RH  090%=      5-min Rain = 0
KCL2 111525Z 21009KT 09/07 A2986 RMK A01 T00890074  RH  090%=      5-min Rain = 0
KCL2 111526Z 22007KT 09/07 A2986 RMK A01 T00900074  RH  090%=      5-min Rain = 0
KCL2 111527Z 22008KT 09/07 A2986 RMK A01 T00900074  RH  090%=      5-min Rain = 0
KCL2 111528Z 21010KT 09/07 A2986 RMK A01 T00900074  RH  090%=      5-min Rain = 0
KCL2 111529Z 21008KT 09/07 A2986 RMK A01 T00900073  RH  089%=      5-min Rain = 0
KCL2 111530Z 21009KT 09/07 A2986 RMK A01 T00900074  RH  089%=      5-min Rain = 0
KCL2 111531Z 20008KT 09/07 A2986 RMK A01 T00900073  RH  089%=      5-min Rain = 0
KCL2 111532Z 20009KT 09/07 A2986 RMK A01 T00900074  RH  090%=      5-min Rain = 0
KCL2 111533Z 20008KT 09/07 A2986 RMK A01 T00900074  RH  090%=      5-min Rain = 0
KCL2 111534Z 21008KT 09/07 A2986 RMK A01 T00900074  RH  090%=      5-min Rain = 0
KCL2 111535Z 21008KT 09/07 A2987 RMK A01 T00900074  RH  090%=      5-min Rain = 0
KCL2 111536Z 23007KT 09/08 A2987 RMK A01 T00900075  RH  090%=      5-min Rain = 0
KCL2 111537Z 23007KT 09/08 A2987 RMK A01 T00910075  RH  090%=      5-min Rain = 0
KCL2 111538Z 23008KT 09/08 A2988 RMK A01 T00910076  RH  090%=      5-min Rain = 0
KCL2 111539Z 23010KT 09/08 A2988 RMK A01 T00910076  RH  090%=      5-min Rain = 0
KCL2 111540Z 21009KT 09/08 A2987 RMK A01 T00910076  RH  090%=      5-min Rain = 0
KCL2 111541Z 20011G16KT 09/08 A2987 RMK A01 T00920076  RH  090%=      5-min Rain = 0
KCL2 111542Z 19010KT 09/08 A2986 RMK A01 T00920076  RH  090%=      5-min Rain = 0
KCL2 111543Z 20008KT 09/08 A2986 RMK A01 T00920075  RH  089%=      5-min Rain = 0
KCL2 111544Z 19009KT 09/08 A2986 RMK A01 T00920075  RH  089%=      5-min Rain = 0
KCL2 111545Z 20009KT 09/08 A2986 RMK A01 T00920076  RH  090%=      5-min Rain = 0
KCL2 111546Z 21011KT 09/08 A2987 RMK A01 T00920076  RH  090%=      5-min Rain = 0
KCL2 111547Z 21011KT 09/08 A2987 RMK A01 T00920075  RH  089%=      5-min Rain = 0
KCL2 111548Z 20009KT 09/08 A2987 RMK A01 T00930075  RH  089%=      5-min Rain = 0
KCL2 111549Z 20011KT 09/08 A2987 RMK A01 T00930076  RH  089%=      5-min Rain = 0
KCL2 111550Z 21011KT 09/08 A2987 RMK A01 T00930075  RH  089%=      5-min Rain = 0
KCL2 111551Z 21008KT 09/08 A2986 RMK A01 T00930075  RH  089%=      5-min Rain = 0
KCL2 111552Z 21007KT 09/08 A2986 RMK A01 T00930076  RH  089%=      5-min Rain = 0
KCL2 111553Z 21009KT 09/08 A2987 RMK A01 T00930076  RH  089%=      5-min Rain = 0
KCL2 111554Z 21011KT 09/08 A2987 RMK A01 T00930075  RH  089%=      5-min Rain = 0
KCL2 111555Z 21010KT 09/08 A2987 RMK A01 T00930076  RH  089%=      5-min Rain = 0
KCL2 111556Z 22011KT 09/08 A2987 RMK A01 T00930076  RH  089%=      5-min Rain = 0
KCL2 111557Z 24009KT 09/08 A2987 RMK A01 T00930075  RH  089%=      5-min Rain = 0
KCL2 111558Z 25007KT 09/08 A2987 RMK A01 T00930076  RH  089%=      5-min Rain = 0
KCL2 111559Z 25006KT 09/08 A2987 RMK A01 T00930076  RH  089%=      5-min Rain = 0
KCL2 111600Z 25008KT 09/08 A2988 RMK A01 T00930076  RH  090%=      5-min Rain = 0
KCL2 111601Z 24009KT 09/08 A2988 RMK A01 T00930076  RH  089%=      5-min Rain = 0
KCL2 111602Z 24009KT 09/08 A2988 RMK A01 T00930076  RH  089%=      5-min Rain = 0
KCL2 111603Z 23010KT 09/08 A2988 RMK A01 T00930076  RH  089%=      5-min Rain = 0
KCL2 111604Z 23009KT 09/08 A2988 RMK A01 T00930076  RH  089%=      5-min Rain = 0
KCL2 111605Z 24009KT 09/08 A2988 RMK A01 T00930076  RH  090%=      5-min Rain = 0
KCL2 111606Z 24009KT 09/08 A2988 RMK A01 T00930077  RH  090%=      5-min Rain = 0
KCL2 111607Z 24008KT 09/08 A2988 RMK A01 T00930077  RH  090%=      5-min Rain = 0
KCL2 111608Z 23008KT 09/08 A2988 RMK A01 T00930077  RH  089%=      5-min Rain = 0
KCL2 111609Z 22009KT 09/08 A2988 RMK A01 T00930077  RH  090%=      5-min Rain = 0
KCL2 111610Z 22012KT 09/08 A2988 RMK A01 T00930076  RH  089%=      5-min Rain = 0
KCL2 111611Z 22011KT 09/08 A2988 RMK A01 T00940076  RH  089%=      5-min Rain = 0
KCL2 111612Z 22010KT 10/08 A2988 RMK A01 T00950076  RH  088%=      5-min Rain = 0
KCL2 111613Z 22010KT 10/08 A2988 RMK A01 T00950076  RH  088%=      5-min Rain = 0
KCL2 111614Z 22011KT 10/08 A2988 RMK A01 T00950076  RH  088%=      5-min Rain = 0
KCL2 111615Z 21010KT 10/08 A2987 RMK A01 T00950076  RH  088%=      5-min Rain = 0
KCL2 111616Z 21009KT 10/08 A2987 RMK A01 T00960076  RH  088%=      5-min Rain = 0
KCL2 111617Z 21011KT 10/08 A2987 RMK A01 T00960077  RH  088%=      5-min Rain = 0
KCL2 111618Z 21010KT 10/08 A2987 RMK A01 T00960077  RH  088%=      5-min Rain = 0
KCL2 111619Z 22011KT 10/08 A2987 RMK A01 T00960077  RH  088%=      5-min Rain = 0
KCL2 111620Z 22012KT 10/08 A2988 RMK A01 T00960077  RH  088%=      5-min Rain = 0
KCL2 111621Z 23009KT 10/08 A2988 RMK A01 T00960077  RH  088%=      5-min Rain = 0
KCL2 111622Z 23010KT 10/08 A2988 RMK A01 T00960077  RH  088%=      5-min Rain = 0
KCL2 111623Z 23011KT 10/08 A2988 RMK A01 T00970077  RH  088%=      5-min Rain = 0
KCL2 111624Z 23013KT 10/08 A2988 RMK A01 T00960077  RH  088%=      5-min Rain = 0
KCL2 111625Z 22013KT 10/08 A2988 RMK A01 T00960076  RH  087%=      5-min Rain = 0
KCL2 111626Z 23013KT 10/08 A2988 RMK A01 T00960077  RH  088%=      5-min Rain = 0
KCL2 111627Z 23015KT 10/08 A2988 RMK A01 T00960077  RH  088%=      5-min Rain = 0
KCL2 111628Z 22013KT 10/08 A2988 RMK A01 T00950077  RH  088%=      5-min Rain = 0
KCL2 111629Z 23014KT 10/08 A2988 RMK A01 T00960078  RH  089%=      5-min Rain = 0
KCL2 111630Z 22014KT 10/08 A2988 RMK A01 T00950077  RH  089%=      5-min Rain = 0
KCL2 111631Z 22015KT 10/08 A2988 RMK A01 T00950077  RH  089%=      5-min Rain = 0
KCL2 111632Z 22014KT 10/08 A2988 RMK A01 T00950077  RH  089%=      5-min Rain = 0
KCL2 111633Z 22014KT 10/08 A2988 RMK A01 T00950078  RH  089%=      5-min Rain = 0
KCL2 111634Z 23015KT 09/08 A2988 RMK A01 T00940079  RH  090%=      5-min Rain = 0
KCL2 111635Z 23015KT 09/08 A2988 RMK A01 T00940079  RH  090%=      5-min Rain = 0
KCL2 111636Z 23016KT 09/08 A2988 RMK A01 T00940079  RH  090%=      5-min Rain = 0
KCL2 111637Z 24016KT 09/08 A2988 RMK A01 T00940079  RH  090%=      5-min Rain = 0
KCL2 111638Z 23014KT 09/08 A2988 RMK A01 T00940079  RH  090%=      5-min Rain = 0
KCL2 111639Z 23012KT 09/08 A2988 RMK A01 T00940079  RH  090%=      5-min Rain = 0
KCL2 111640Z 23011KT 09/08 A2988 RMK A01 T00940080  RH  091%=      5-min Rain = 0
KCL2 111641Z 23012KT 09/08 A2988 RMK A01 T00940080  RH  091%=      5-min Rain = 0
KCL2 111642Z 23010KT 10/08 A2988 RMK A01 T00950080  RH  091%=      5-min Rain = 0
KCL2 111643Z 23011KT 10/08 A2988 RMK A01 T00950081  RH  091%=      5-min Rain = 0
KCL2 111644Z 23011KT 10/08 A2988 RMK A01 T00960081  RH  090%=      5-min Rain = 0
KCL2 111645Z 23010KT 10/08 A2988 RMK A01 T00960081  RH  090%=      5-min Rain = 0
KCL2 111646Z 23009KT 10/08 A2988 RMK A01 T00970081  RH  090%=      5-min Rain = 0
KCL2 111647Z 23010KT 10/08 A2988 RMK A01 T00980082  RH  090%=      5-min Rain = 0
KCL2 111648Z 23009KT 10/08 A2988 RMK A01 T00980082  RH  090%=      5-min Rain = 0
KCL2 111649Z 23009KT 10/08 A2988 RMK A01 T00990083  RH  090%=      5-min Rain = 0
KCL2 111650Z 23011KT 10/08 A2988 RMK A01 T00990082  RH  089%=      5-min Rain = 0
KCL2 111651Z 23011KT 10/08 A2988 RMK A01 T01000082  RH  088%=      5-min Rain = 0
KCL2 111652Z 23011KT 10/08 A2987 RMK A01 T01010082  RH  088%=      5-min Rain = 0
KCL2 111653Z 23013KT 10/08 A2987 RMK A01 T01010081  RH  087%=      5-min Rain = 0
KCL2 111654Z 23011KT 10/08 A2987 RMK A01 T01010080  RH  087%=      5-min Rain = 0
KCL2 111655Z 23011KT 10/08 A2987 RMK A01 T01020081  RH  087%=      5-min Rain = 0
KCL2 111656Z 23012KT 10/08 A2987 RMK A01 T01020081  RH  087%=      5-min Rain = 0
KCL2 111657Z 23010KT 10/08 A2987 RMK A01 T01020082  RH  087%=      5-min Rain = 0
KCL2 111658Z 23010KT 10/08 A2987 RMK A01 T01020082  RH  088%=      5-min Rain = 0
KCL2 111659Z 23010KT 10/08 A2987 RMK A01 T01020083  RH  088%=      5-min Rain = 0
KCL2 111700Z 23011KT 10/08 A2987 RMK A01 T01020082  RH  087%=      5-min Rain = 0
KCL2 111701Z 24011KT 10/08 A2987 RMK A01 T01020082  RH  087%=      5-min Rain = 0
KCL2 111702Z 23010KT 10/08 A2987 RMK A01 T01030082  RH  087%=      5-min Rain = 0
KCL2 111703Z 23010KT 10/08 A2987 RMK A01 T01030082  RH  087%=      5-min Rain = 0
KCL2 111704Z 23010KT 10/08 A2987 RMK A01 T01030083  RH  087%=      5-min Rain = 0
KCL2 111705Z 22011KT 10/08 A2987 RMK A01 T01030082  RH  087%=      5-min Rain = 0
KCL2 111706Z 23011KT 10/08 A2987 RMK A01 T01030082  RH  087%=      5-min Rain = 0
KCL2 111707Z 23010KT 10/08 A2987 RMK A01 T01030082  RH  087%=      5-min Rain = 0
KCL2 111708Z 23011KT 10/08 A2987 RMK A01 T01030082  RH  087%=      5-min Rain = 0
KCL2 111709Z 23010KT 10/08 A2987 RMK A01 T01030082  RH  086%=      5-min Rain = 0
KCL2 111710Z 23010KT 10/08 A2987 RMK A01 T01030083  RH  087%=      5-min Rain = 0
KCL2 111711Z 23010KT 10/08 A2987 RMK A01 T01030083  RH  087%=      5-min Rain = 0
KCL2 111712Z 23011KT 10/08 A2987 RMK A01 T01030083  RH  087%=      5-min Rain = 0
KCL2 111713Z 23012KT 10/08 A2987 RMK A01 T01030083  RH  087%=      5-min Rain = 0
KCL2 111714Z 22012KT 10/08 A2987 RMK A01 T01030083  RH  087%=      5-min Rain = 0
KCL2 111715Z 22012KT 10/08 A2987 RMK A01 T01030082  RH  087%=      5-min Rain = 0
KCL2 111716Z 23012KT 10/08 A2987 RMK A01 T01020081  RH  087%=      5-min Rain = 0
KCL2 111717Z 23012KT 10/08 A2987 RMK A01 T01010081  RH  087%=      5-min Rain = 0
KCL2 111718Z 23010KT 10/08 A2987 RMK A01 T01010081  RH  088%=      5-min Rain = 0
KCL2 111719Z 23010KT 10/08 A2987 RMK A01 T01010082  RH  088%=      5-min Rain = 0
KCL2 111720Z 23009KT 10/08 A2987 RMK A01 T01010082  RH  088%=      5-min Rain = 0
KCL2 111721Z 23011KT 10/08 A2987 RMK A01 T01010082  RH  088%=      5-min Rain = 0
KCL2 111722Z 23010KT 10/08 A2987 RMK A01 T01010082  RH  088%=      5-min Rain = 0
KCL2 111723Z 24011KT 10/08 A2987 RMK A01 T01010082  RH  088%=      5-min Rain = 0
KCL2 111724Z 24009KT 10/08 A2986 RMK A01 T01020083  RH  088%=      5-min Rain = 0
KCL2 111725Z 23008KT 10/08 A2987 RMK A01 T01020083  RH  088%=      5-min Rain = 0
KCL2 111726Z 23009KT 10/08 A2986 RMK A01 T01010084  RH  089%=      5-min Rain = 0
KCL2 111727Z 23009KT 10/08 A2986 RMK A01 T01020084  RH  089%=      5-min Rain = 0
KCL2 111728Z 23009KT 10/08 A2986 RMK A01 T01020083  RH  088%=      5-min Rain = 0
KCL2 111729Z 23008KT 10/09 A2986 RMK A01 T01030085  RH  088%=      5-min Rain = 0
KCL2 111730Z 23009KT 10/09 A2986 RMK A01 T01030085  RH  089%=      5-min Rain = 0
KCL2 111731Z 23011KT 10/08 A2986 RMK A01 T01030084  RH  088%=      5-min Rain = 0
KCL2 111732Z 23010KT 10/08 A2986 RMK A01 T01040084  RH  088%=      5-min Rain = 0
KCL2 111733Z 24010KT 10/08 A2986 RMK A01 T01040084  RH  087%=      5-min Rain = 0
KCL2 111734Z 23010KT 10/08 A2986 RMK A01 T01040084  RH  087%=      5-min Rain = 0
KCL2 111735Z 24010KT 10/08 A2986 RMK A01 T01040083  RH  087%=      5-min Rain = 0
KCL2 111736Z 24008KT 10/08 A2986 RMK A01 T01040084  RH  088%=      5-min Rain = 0
KCL2 111737Z 24009KT 10/09 A2986 RMK A01 T01040086  RH  088%=      5-min Rain = 0
KCL2 111738Z 23011KT 10/09 A2986 RMK A01 T01040085  RH  088%=      5-min Rain = 0
KCL2 111739Z 24009KT 10/08 A2986 RMK A01 T01040084  RH  087%=      5-min Rain = 0
KCL2 111740Z 23009KT 10/08 A2986 RMK A01 T01040084  RH  087%=      5-min Rain = 0
KCL2 111741Z 23008KT 10/09 A2985 RMK A01 T01040085  RH  088%=      5-min Rain = 0
KCL2 111742Z 24009KT 10/09 A2985 RMK A01 T01040086  RH  088%=      5-min Rain = 0
KCL2 111743Z 24007KT 10/09 A2985 RMK A01 T01040086  RH  088%=      5-min Rain = 0
KCL2 111744Z 24009KT 10/09 A2985 RMK A01 T01040086  RH  089%=      5-min Rain = 0
KCL2 111745Z 23008KT 10/09 A2985 RMK A01 T01040085  RH  088%=      5-min Rain = 0
KCL2 111746Z 23007KT 10/09 A2985 RMK A01 T01040085  RH  088%=      5-min Rain = 0
KCL2 111747Z 23007KT 10/09 A2985 RMK A01 T01040086  RH  089%=      5-min Rain = 0
KCL2 111748Z 23008KT 10/09 A2985 RMK A01 T01030086  RH  089%=      5-min Rain = 0
KCL2 111749Z 24008KT 10/09 A2985 RMK A01 T01030086  RH  089%=      5-min Rain = 0
KCL2 111750Z 23008KT 10/09 A2984 RMK A01 T01030087  RH  089%=      5-min Rain = 0
KCL2 111751Z 23008KT 10/09 A2984 RMK A01 T01030087  RH  090%=      5-min Rain = 0
KCL2 111752Z 23008KT 10/09 A2984 RMK A01 T01030086  RH  089%=      5-min Rain = 0
KCL2 111753Z 24007KT 10/09 A2984 RMK A01 T01030086  RH  089%=      5-min Rain = 0
KCL2 111754Z 24008KT 10/09 A2984 RMK A01 T01040086  RH  089%=      5-min Rain = 0
KCL2 111755Z 24007KT 10/09 A2984 RMK A01 T01040086  RH  088%=      5-min Rain = 0
KCL2 111756Z 24007KT 10/09 A2983 RMK A01 T01040085  RH  088%=      5-min Rain = 0
KCL2 111757Z 24006KT 10/09 A2983 RMK A01 T01040086  RH  089%=      5-min Rain = 0
KCL2 111758Z 24007KT 11/09 A2983 RMK A01 T01050088  RH  089%=      5-min Rain = 0
KCL2 111759Z 24007KT 11/09 A2983 RMK A01 T01050089  RH  090%=      5-min Rain = 0
KCL2 111800Z 24007KT 11/09 A2983 RMK A01 T01050089  RH  090%=      5-min Rain = 0
KCL2 111801Z 25008KT 11/09 A2983 RMK A01 T01050089  RH  090%=      5-min Rain = 0
KCL2 111802Z 24008KT 11/09 A2983 RMK A01 T01050089  RH  089%=      5-min Rain = 0
KCL2 111803Z 25007KT 11/09 A2984 RMK A01 T01050089  RH  090%=      5-min Rain = 0
KCL2 111804Z 25008KT 11/09 A2984 RMK A01 T01050091  RH  091%=      5-min Rain = 0.01
KCL2 111805Z 25008KT 11/09 A2984 RMK A01 T01050091  RH  091%=      5-min Rain = 0
KCL2 111806Z 25008KT 11/09 A2983 RMK A01 T01050090  RH  090%=      5-min Rain = 0
KCL2 111807Z 25007KT 11/09 A2983 RMK A01 T01050090  RH  091%=      5-min Rain = 0
KCL2 111808Z 25007KT 10/09 A2983 RMK A01 T01040090  RH  091%=      5-min Rain = 0
KCL2 111809Z 26008KT 10/09 A2983 RMK A01 T01040090  RH  091%=      5-min Rain = 0
KCL2 111810Z 26007KT 10/09 A2983 RMK A01 T01040090  RH  091%=      5-min Rain = 0
KCL2 111811Z 26007KT 10/09 A2982 RMK A01 T01040090  RH  091%=      5-min Rain = 0
KCL2 111812Z 25006KT 10/09 A2982 RMK A01 T01040090  RH  091%=      5-min Rain = 0
KCL2 111813Z 26008KT 10/09 A2982 RMK A01 T01040091  RH  091%=      5-min Rain = 0
KCL2 111814Z 25007KT 10/09 A2982 RMK A01 T01040091  RH  091%=      5-min Rain = 0
KCL2 111815Z 25007KT 11/09 A2982 RMK A01 T01050091  RH  091%=      5-min Rain = 0
KCL2 111816Z 24006KT 11/09 A2982 RMK A01 T01050092  RH  092%=      5-min Rain = 0
KCL2 111817Z 24006KT 11/09 A2982 RMK A01 T01050093  RH  092%=      5-min Rain = 0
KCL2 111818Z 24006KT 11/10 A2982 RMK A01 T01060095  RH  093%=      5-min Rain = 0
KCL2 111819Z 23006KT 11/09 A2982 RMK A01 T01060094  RH  092%=      5-min Rain = 0
KCL2 111820Z 23005KT 11/10 A2982 RMK A01 T01060095  RH  093%=      5-min Rain = 0
KCL2 111821Z 23006KT 11/10 A2982 RMK A01 T01060095  RH  092%=      5-min Rain = 0
KCL2 111822Z 23005KT 11/10 A2981 RMK A01 T01070095  RH  093%=      5-min Rain = 0
KCL2 111823Z 23006KT 11/10 A2981 RMK A01 T01070096  RH  093%=      5-min Rain = 0
KCL2 111824Z 23005KT 11/10 A2981 RMK A01 T01080097  RH  093%=      5-min Rain = 0
KCL2 111825Z 23006KT 11/10 A2981 RMK A01 T01090099  RH  094%=      5-min Rain = 0
KCL2 111826Z 23006KT 11/10 A2981 RMK A01 T01090098  RH  093%=      5-min Rain = 0
KCL2 111827Z 24006KT 11/10 A2981 RMK A01 T01090097  RH  092%=      5-min Rain = 0
KCL2 111828Z 24007KT 11/10 A2981 RMK A01 T01090097  RH  092%=      5-min Rain = 0
KCL2 111829Z 23006KT 11/10 A2981 RMK A01 T01100097  RH  092%=      5-min Rain = 0
KCL2 111830Z 24005KT 11/10 A2981 RMK A01 T01110099  RH  092%=      5-min Rain = 0
KCL2 111831Z 24006KT 11/10 A2981 RMK A01 T01110099  RH  092%=      5-min Rain = 0
KCL2 111832Z 24006KT 11/10 A2981 RMK A01 T01110099  RH  092%=      5-min Rain = 0
KCL2 111833Z 24007KT 11/10 A2981 RMK A01 T01110098  RH  091%=      5-min Rain = 0
KCL2 111834Z 23007KT 11/10 A2981 RMK A01 T01120097  RH  091%=      5-min Rain = 0
KCL2 111835Z 24007KT 11/10 A2981 RMK A01 T01120096  RH  090%=      5-min Rain = 0
KCL2 111836Z 24007KT 11/10 A2981 RMK A01 T01120097  RH  091%=      5-min Rain = 0
KCL2 111837Z 24007KT 11/10 A2981 RMK A01 T01120098  RH  091%=      5-min Rain = 0
KCL2 111838Z 24007KT 11/10 A298 RMK A01 T01120098  RH  091%=      5-min Rain = 0
KCL2 111839Z 24007KT 11/10 A298 RMK A01 T01130097  RH  090%=      5-min Rain = 0
KCL2 111840Z 24007KT 11/10 A298 RMK A01 T01120097  RH  090%=      5-min Rain = 0
KCL2 111841Z 25008KT 11/10 A298 RMK A01 T01130097  RH  090%=      5-min Rain = 0
KCL2 111842Z 24007KT 11/10 A298 RMK A01 T01130096  RH  089%=      5-min Rain = 0
KCL2 111843Z 24007KT 11/10 A298 RMK A01 T01130097  RH  090%=      5-min Rain = 0
KCL2 111844Z 24007KT 11/10 A298 RMK A01 T01130097  RH  090%=      5-min Rain = 0
KCL2 111845Z 24007KT 11/10 A298 RMK A01 T01130097  RH  090%=      5-min Rain = 0
KCL2 111846Z 24008KT 11/10 A2981 RMK A01 T01140098  RH  090%=      5-min Rain = 0
KCL2 111847Z 23009KT 11/10 A2981 RMK A01 T01140097  RH  090%=      5-min Rain = 0
KCL2 111848Z 23007KT 11/10 A2981 RMK A01 T01130097  RH  090%=      5-min Rain = 0
KCL2 111849Z 23008KT 11/10 A2981 RMK A01 T01140098  RH  090%=      5-min Rain = 0
KCL2 111850Z 22008KT 11/10 A2981 RMK A01 T01140098  RH  090%=      5-min Rain = 0
KCL2 111851Z 23008KT 11/10 A2981 RMK A01 T01140099  RH  090%=      5-min Rain = 0
KCL2 111852Z 22008KT 11/10 A2981 RMK A01 T01140099  RH  090%=      5-min Rain = 0
KCL2 111853Z 22008KT 11/10 A2981 RMK A01 T01140098  RH  090%=      5-min Rain = 0
KCL2 111854Z 23008KT 11/10 A2981 RMK A01 T01140099  RH  091%=      5-min Rain = 0
KCL2 111855Z 23009KT 11/10 A2981 RMK A01 T01140099  RH  091%=      5-min Rain = 0
KCL2 111856Z 23009KT 11/10 A2981 RMK A01 T01130097  RH  090%=      5-min Rain = 0
KCL2 111857Z 22009KT 11/10 A2981 RMK A01 T01140098  RH  090%=      5-min Rain = 0
KCL2 111858Z 22009KT 11/10 A2981 RMK A01 T01130098  RH  090%=      5-min Rain = 0
KCL2 111859Z 22010KT 11/10 A2981 RMK A01 T01130099  RH  091%=      5-min Rain = 0
KCL2 111900Z 22009KT 11/10 A2981 RMK A01 T01130098  RH  091%=      5-min Rain = 0
KCL2 111901Z 22009KT 11/10 A2981 RMK A01 T01130098  RH  091%=      5-min Rain = 0
KCL2 111902Z 21010KT 11/10 A2981 RMK A01 T01120097  RH  091%=      5-min Rain = 0
KCL2 111903Z 21008KT 11/10 A2981 RMK A01 T01120098  RH  091%=      5-min Rain = 0
KCL2 111904Z 20009KT 11/10 A2981 RMK A01 T01120098  RH  092%=      5-min Rain = 0
KCL2 111905Z 20010KT 11/10 A2981 RMK A01 T01110098  RH  092%=      5-min Rain = 0
KCL2 111906Z 20009KT 11/10 A2981 RMK A01 T01110098  RH  092%=      5-min Rain = 0
KCL2 111907Z 20010KT 11/10 A2981 RMK A01 T01100098  RH  092%=      5-min Rain = 0
KCL2 111908Z 20009KT 11/10 A2981 RMK A01 T01100098  RH  093%=      5-min Rain = 0
KCL2 111909Z 19010KT 11/10 A2981 RMK A01 T01100099  RH  093%=      5-min Rain = 0.01
KCL2 111910Z 19010KT 11/10 A2981 RMK A01 T01100099  RH  093%=      5-min Rain = 0
KCL2 111911Z 19010KT 11/10 A2981 RMK A01 T01100099  RH  093%=      5-min Rain = 0
KCL2 111912Z 19012KT 11/10 A2981 RMK A01 T01100100  RH  094%=      5-min Rain = 0
KCL2 111913Z 19010KT 11/10 A2981 RMK A01 T01100100  RH  094%=      5-min Rain = 0
KCL2 111914Z 19010KT 11/10 A2981 RMK A01 T01100100  RH  094%=      5-min Rain = 0
KCL2 111915Z 19012KT 11/10 A2981 RMK A01 T01100100  RH  094%=      5-min Rain = 0
KCL2 111916Z 20012KT 11/10 A2981 RMK A01 T01100100  RH  094%=      5-min Rain = 0
KCL2 111917Z 19010KT 11/10 A2981 RMK A01 T01100100  RH  094%=      5-min Rain = 0
KCL2 111918Z 19011KT 11/10 A2981 RMK A01 T01100101  RH  094%=      5-min Rain = 0
KCL2 111919Z 19010KT 11/10 A2981 RMK A01 T01100101  RH  094%=      5-min Rain = 0
KCL2 111920Z 19011KT 11/10 A2981 RMK A01 T01100102  RH  095%=      5-min Rain = 0
KCL2 111921Z 20010KT 11/10 A2981 RMK A01 T01100102  RH  095%=      5-min Rain = 0
KCL2 111922Z 20010KT 11/10 A2981 RMK A01 T01090101  RH  095%=      5-min Rain = 0
KCL2 111923Z 20011KT 11/10 A2981 RMK A01 T01080100  RH  095%=      5-min Rain = 0
KCL2 111924Z 19012KT 11/10 A2981 RMK A01 T01080099  RH  095%=      5-min Rain = 0
KCL2 111925Z 19015KT 11/10 A2981 RMK A01 T01070098  RH  095%=      5-min Rain = 0
KCL2 111926Z 19015KT 11/10 A2981 RMK A01 T01060097  RH  094%=      5-min Rain = 0.01
KCL2 111927Z 19014KT 11/10 A2981 RMK A01 T01050097  RH  095%=      5-min Rain = 0
KCL2 111928Z 19012KT 10/10 A2981 RMK A01 T01040097  RH  095%=      5-min Rain = 0
KCL2 111929Z 20012KT 10/10 A2981 RMK A01 T01030096  RH  095%=      5-min Rain = 0
KCL2 111930Z 19010KT 10/10 A2981 RMK A01 T01030097  RH  096%=      5-min Rain = 0
KCL2 111931Z 19010KT 10/10 A2981 RMK A01 T01030097  RH  096%=      5-min Rain = 0
KCL2 111932Z 19012KT 10/10 A2981 RMK A01 T01020097  RH  097%=      5-min Rain = 0.01
KCL2 111933Z 19013KT 10/10 A2981 RMK A01 T01010096  RH  097%=      5-min Rain = 0
KCL2 111934Z 19013KT 10/10 A2981 RMK A01 T01010096  RH  097%=      5-min Rain = 0
KCL2 111935Z 19011KT 10/10 A2981 RMK A01 T01000096  RH  097%=      5-min Rain = 0
KCL2 111936Z 20011KT 10/10 A2981 RMK A01 T01000096  RH  097%=      5-min Rain = 0
KCL2 111937Z 19012KT 10/10 A2981 RMK A01 T01000095  RH  097%=      5-min Rain = 0
KCL2 111938Z 19012KT 10/10 A2981 RMK A01 T00990095  RH  097%=      5-min Rain = 0.01
KCL2 111939Z 20012KT 10/10 A2981 RMK A01 T00980095  RH  097%=      5-min Rain = 0
KCL2 111940Z 20012KT 10/09 A298 RMK A01 T00980094  RH  098%=      5-min Rain = 0
KCL2 111941Z 20010KT 10/09 A2981 RMK A01 T00980094  RH  098%=      5-min Rain = 0
KCL2 111942Z 19011KT 10/10 A298 RMK A01 T00980095  RH  098%=      5-min Rain = 0
KCL2 111943Z 20010KT 10/10 A298 RMK A01 T00980095  RH  098%=      5-min Rain = 0
KCL2 111944Z 20010KT 10/10 A298 RMK A01 T00980095  RH  098%=      5-min Rain = 0
KCL2 111945Z 20009KT 10/10 A298 RMK A01 T00980095  RH  098%=      5-min Rain = 0
KCL2 111946Z 20012KT 10/10 A298 RMK A01 T00980095  RH  098%=      5-min Rain = 0.01
KCL2 111947Z 20009KT 10/10 A298 RMK A01 T00980095  RH  098%=      5-min Rain = 0
KCL2 111948Z 19010KT 10/10 A298 RMK A01 T00980095  RH  098%=      5-min Rain = 0
KCL2 111949Z 20011KT 10/10 A298 RMK A01 T00980095  RH  098%=      5-min Rain = 0
KCL2 111950Z 19011KT 10/10 A298 RMK A01 T00980095  RH  098%=      5-min Rain = 0
KCL2 111951Z 19010KT 10/10 A298 RMK A01 T00980095  RH  098%=      5-min Rain = 0
KCL2 111952Z 19010KT 10/10 A298 RMK A01 T00980095  RH  098%=      5-min Rain = 0
KCL2 111953Z 18011KT 10/10 A2979 RMK A01 T00980095  RH  098%=      5-min Rain = 0.01
KCL2 111954Z 19011KT 10/10 A2979 RMK A01 T00980095  RH  098%=      5-min Rain = 0
KCL2 111955Z 20011KT 10/10 A2979 RMK A01 T00980095  RH  098%=      5-min Rain = 0
KCL2 111956Z 19012KT 10/10 A2979 RMK A01 T00980095  RH  098%=      5-min Rain = 0
KCL2 111957Z 20012KT 10/10 A298 RMK A01 T00980095  RH  098%=      5-min Rain = 0
KCL2 111958Z 19012KT 10/10 A298 RMK A01 T00980095  RH  098%=      5-min Rain = 0
KCL2 111959Z 19011KT 10/10 A298 RMK A01 T00980095  RH  098%=      5-min Rain = 0
KCL2 112000Z 20012KT 10/10 A298 RMK A01 T00980095  RH  098%=      5-min Rain = 0
KCL2 112001Z 20012KT 10/10 A2979 RMK A01 T00970095  RH  098%=      5-min Rain = 0
KCL2 112002Z 20011KT 10/10 A2979 RMK A01 T00970095  RH  098%=      5-min Rain = 0
KCL2 112003Z 20009KT 10/09 A2979 RMK A01 T00970094  RH  098%=      5-min Rain = 0
KCL2 112004Z 20010KT 10/09 A2979 RMK A01 T00970094  RH  098%=      5-min Rain = 0
KCL2 112005Z 20010KT 10/09 A2979 RMK A01 T00970094  RH  098%=      5-min Rain = 0
KCL2 112006Z 19010KT 10/09 A2979 RMK A01 T00970094  RH  098%=      5-min Rain = 0
KCL2 112007Z 20011KT 10/10 A2979 RMK A01 T00970095  RH  098%=      5-min Rain = 0
KCL2 112008Z 20010KT 10/09 A2979 RMK A01 T00970094  RH  098%=      5-min Rain = 0
KCL2 112009Z 20011KT 10/09 A2979 RMK A01 T00970094  RH  098%=      5-min Rain = 0
KCL2 112010Z 20011KT 10/10 A2979 RMK A01 T00970095  RH  098%=      5-min Rain = 0.01
KCL2 112011Z 19011KT 10/10 A2979 RMK A01 T00970095  RH  098%=      5-min Rain = 0
KCL2 112012Z 21010KT 10/10 A2979 RMK A01 T00970095  RH  098%=      5-min Rain = 0
KCL2 112013Z 20012KT 10/10 A2979 RMK A01 T00980095  RH  098%=      5-min Rain = 0
KCL2 112014Z 20012KT 10/10 A2979 RMK A01 T00970095  RH  098%=      5-min Rain = 0
KCL2 112015Z 20012KT 10/10 A2979 RMK A01 T00980095  RH  098%=      5-min Rain = 0
KCL2 112016Z 20013KT 10/10 A2979 RMK A01 T00980095  RH  098%=      5-min Rain = 0
KCL2 112017Z 20011KT 10/10 A2979 RMK A01 T00980095  RH  098%=      5-min Rain = 0
KCL2 112018Z 20012KT 10/10 A2979 RMK A01 T00980095  RH  098%=      5-min Rain = 0
KCL2 112019Z 19011KT 10/10 A2978 RMK A01 T00980095  RH  098%=      5-min Rain = 0
KCL2 112020Z 19010KT 10/10 A2978 RMK A01 T00980095  RH  098%=      5-min Rain = 0
KCL2 112021Z 19012KT 10/10 A2978 RMK A01 T00980095  RH  098%=      5-min Rain = 0
KCL2 112022Z 20011KT 10/09 A2978 RMK A01 T00980094  RH  098%=      5-min Rain = 0
KCL2 112023Z 20011KT 10/09 A2979 RMK A01 T00980094  RH  098%=      5-min Rain = 0
KCL2 112024Z 20010KT 10/09 A2979 RMK A01 T00980094  RH  098%=      5-min Rain = 0
KCL2 112025Z 20009KT 10/10 A2979 RMK A01 T00980095  RH  098%=      5-min Rain = 0
KCL2 112026Z 20010KT 10/10 A2978 RMK A01 T00980095  RH  098%=      5-min Rain = 0
KCL2 112027Z 19010KT 10/10 A2978 RMK A01 T00990096  RH  098%=      5-min Rain = 0
KCL2 112028Z 20009KT 10/10 A2978 RMK A01 T00990095  RH  098%=      5-min Rain = 0
KCL2 112029Z 20009KT 10/10 A2978 RMK A01 T00990095  RH  098%=      5-min Rain = 0
KCL2 112030Z 20009KT 10/10 A2978 RMK A01 T00990096  RH  098%=      5-min Rain = 0
KCL2 112031Z 19009KT 10/10 A2978 RMK A01 T00990096  RH  098%=      5-min Rain = 0
KCL2 112032Z 21011KT 10/10 A2978 RMK A01 T00990096  RH  098%=      5-min Rain = 0.01
KCL2 112033Z 20010KT 10/10 A2978 RMK A01 T00990096  RH  098%=      5-min Rain = 0
KCL2 112034Z 20010KT 10/10 A2978 RMK A01 T00990095  RH  098%=      5-min Rain = 0
KCL2 112035Z 20009KT 10/10 A2978 RMK A01 T00990095  RH  098%=      5-min Rain = 0
KCL2 112036Z 20009KT 10/10 A2978 RMK A01 T00990096  RH  098%=      5-min Rain = 0
KCL2 112037Z 21011KT 10/10 A2978 RMK A01 T00990096  RH  098%=      5-min Rain = 0
KCL2 112038Z 20012KT 10/10 A2978 RMK A01 T01000096  RH  098%=      5-min Rain = 0
KCL2 112039Z 20011KT 10/10 A2978 RMK A01 T01000096  RH  098%=      5-min Rain = 0
KCL2 112040Z 20011KT 10/10 A2978 RMK A01 T01000096  RH  097%=      5-min Rain = 0
KCL2 112041Z 20012KT 10/10 A2977 RMK A01 T01010097  RH  097%=      5-min Rain = 0
KCL2 112042Z 19011KT 10/10 A2977 RMK A01 T01010097  RH  097%=      5-min Rain = 0
KCL2 112043Z 19011KT 10/10 A2977 RMK A01 T01010097  RH  097%=      5-min Rain = 0
KCL2 112044Z 20010KT 10/10 A2977 RMK A01 T01010097  RH  097%=      5-min Rain = 0
KCL2 112045Z 20013KT 10/10 A2977 RMK A01 T01010097  RH  097%=      5-min Rain = 0
KCL2 112046Z 19011KT 10/10 A2977 RMK A01 T01020097  RH  097%=      5-min Rain = 0
KCL2 112047Z 20010KT 10/10 A2976 RMK A01 T01020098  RH  097%=      5-min Rain = 0
KCL2 112048Z 20010KT 10/10 A2976 RMK A01 T01020098  RH  097%=      5-min Rain = 0
KCL2 112049Z 19014KT 10/10 A2976 RMK A01 T01020098  RH  097%=      5-min Rain = 0
KCL2 112050Z 20013KT 10/10 A2976 RMK A01 T01020098  RH  097%=      5-min Rain = 0
KCL2 112051Z 19012KT 10/10 A2975 RMK A01 T01030098  RH  097%=      5-min Rain = 0
KCL2 112052Z 19012KT 10/10 A2975 RMK A01 T01030098  RH  097%=      5-min Rain = 0
KCL2 112053Z 19012KT 10/10 A2975 RMK A01 T01030099  RH  097%=      5-min Rain = 0
KCL2 112054Z 19012KT 10/10 A2975 RMK A01 T01030098  RH  097%=      5-min Rain = 0
KCL2 112055Z 18012KT 10/10 A2975 RMK A01 T01040099  RH  097%=      5-min Rain = 0
KCL2 112056Z 19014G19KT 10/10 A2975 RMK A01 T01040098  RH  097%=      5-min Rain = 0
KCL2 112057Z 19012KT 10/10 A2974 RMK A01 T01040099  RH  097%=      5-min Rain = 0
KCL2 112058Z 18014G19KT 10/10 A2974 RMK A01 T01040099  RH  097%=      5-min Rain = 0
KCL2 112059Z 19014KT 10/10 A2974 RMK A01 T01040099  RH  097%=      5-min Rain = 0
KCL2 112100Z 19012KT 10/10 A2974 RMK A01 T01040099  RH  096%=      5-min Rain = 0
KCL2 112101Z 19012G17KT 11/10 A2974 RMK A01 T01050099  RH  096%=      5-min Rain = 0
KCL2 112102Z 19015KT 11/10 A2974 RMK A01 T01050099  RH  096%=      5-min Rain = 0
KCL2 112103Z 19015KT 11/10 A2974 RMK A01 T01050099  RH  096%=      5-min Rain = 0
KCL2 112104Z 19014KT 11/10 A2974 RMK A01 T01060099  RH  095%=      5-min Rain = 0
KCL2 112105Z 20015G20KT 11/10 A2973 RMK A01 T01060098  RH  095%=      5-min Rain = 0
KCL2 112106Z 20013KT 11/10 A2973 RMK A01 T01060098  RH  095%=      5-min Rain = 0
KCL2 112107Z 20015KT 11/10 A2973 RMK A01 T01070099  RH  095%=      5-min Rain = 0
KCL2 112108Z 20017KT 11/10 A2973 RMK A01 T01070098  RH  094%=      5-min Rain = 0
KCL2 112109Z 20016KT 11/10 A2974 RMK A01 T01070097  RH  094%=      5-min Rain = 0
KCL2 112110Z 20016KT 11/10 A2974 RMK A01 T01070098  RH  094%=      5-min Rain = 0
KCL2 112111Z 19012KT 11/10 A2973 RMK A01 T01070098  RH  094%=      5-min Rain = 0
KCL2 112112Z 19012G17KT 11/10 A2972 RMK A01 T01070098  RH  094%=      5-min Rain = 0
KCL2 112113Z 18011G16KT 11/10 A2972 RMK A01 T01070099  RH  094%=      5-min Rain = 0
KCL2 112114Z 18016KT 11/10 A2972 RMK A01 T01070099  RH  095%=      5-min Rain = 0
KCL2 112115Z 18016KT 11/10 A2971 RMK A01 T01060098  RH  095%=      5-min Rain = 0
KCL2 112116Z 18014KT 11/10 A2971 RMK A01 T01060098  RH  095%=      5-min Rain = 0
KCL2 112117Z 18012KT 11/10 A2971 RMK A01 T01060099  RH  096%=      5-min Rain = 0
KCL2 112118Z 18016KT 11/10 A297 RMK A01 T01060099  RH  096%=      5-min Rain = 0
KCL2 112119Z 17018KT 11/10 A297 RMK A01 T01050099  RH  096%=      5-min Rain = 0
KCL2 112120Z 18018KT 11/10 A297 RMK A01 T01050098  RH  095%=      5-min Rain = 0
KCL2 112121Z 17015KT 11/10 A297 RMK A01 T01050098  RH  095%=      5-min Rain = 0
KCL2 112122Z 18016KT 11/10 A297 RMK A01 T01060099  RH  095%=      5-min Rain = 0
KCL2 112123Z 18016KT 11/10 A297 RMK A01 T01050098  RH  095%=      5-min Rain = 0
KCL2 112124Z 18015KT 11/10 A297 RMK A01 T01060099  RH  096%=      5-min Rain = 0
KCL2 112125Z 18015KT 11/10 A2969 RMK A01 T01050099  RH  096%=      5-min Rain = 0
KCL2 112126Z 17016KT 11/10 A2969 RMK A01 T01050099  RH  096%=      5-min Rain = 0
KCL2 112127Z 18014KT 11/10 A2969 RMK A01 T01050099  RH  096%=      5-min Rain = 0
KCL2 112128Z 17016KT 11/10 A2969 RMK A01 T01050099  RH  096%=      5-min Rain = 0
KCL2 112129Z 18017G23KT 11/10 A2969 RMK A01 T01050099  RH  096%=      5-min Rain = 0
KCL2 112130Z 17017KT 11/10 A2969 RMK A01 T01050099  RH  096%=      5-min Rain = 0
KCL2 112131Z 17016G23KT 11/10 A2969 RMK A01 T01050099  RH  096%=      5-min Rain = 0
KCL2 112132Z 18016G22KT 11/10 A2969 RMK A01 T01050099  RH  096%=      5-min Rain = 0
KCL2 112133Z 18015KT 11/10 A2969 RMK A01 T01050099  RH  096%=      5-min Rain = 0
KCL2 112134Z 17017KT 11/10 A2969 RMK A01 T01050099  RH  096%=      5-min Rain = 0
KCL2 112135Z 17017G22KT 11/10 A2969 RMK A01 T01050099  RH  096%=      5-min Rain = 0
KCL2 112136Z 19017KT 11/10 A297 RMK A01 T01050099  RH  096%=      5-min Rain = 0
KCL2 112137Z 19017KT 11/10 A2971 RMK A01 T01050099  RH  096%=      5-min Rain = 0
KCL2 112138Z 19016KT 11/10 A2971 RMK A01 T01050099  RH  096%=      5-min Rain = 0
KCL2 112139Z 19015KT 11/10 A2971 RMK A01 T01050099  RH  096%=      5-min Rain = 0
KCL2 112140Z 19016KT 11/10 A2971 RMK A01 T01050099  RH  096%=      5-min Rain = 0
KCL2 112141Z 19018KT 11/10 A2971 RMK A01 T01050099  RH  096%=      5-min Rain = 0
KCL2 112142Z 18016KT 11/10 A2971 RMK A01 T01050099  RH  096%=      5-min Rain = 0
KCL2 112143Z 19017KT 11/10 A2971 RMK A01 T01060099  RH  096%=      5-min Rain = 0
KCL2 112144Z 19014KT 11/10 A2971 RMK A01 T01060100  RH  096%=      5-min Rain = 0
KCL2 112145Z 18015KT 11/10 A2971 RMK A01 T01050099  RH  096%=      5-min Rain = 0
KCL2 112146Z 18017KT 11/10 A297 RMK A01 T01050099  RH  096%=      5-min Rain = 0
KCL2 112147Z 19013KT 11/10 A2971 RMK A01 T01050099  RH  096%=      5-min Rain = 0
KCL2 112148Z 19012KT 11/10 A2971 RMK A01 T01060100  RH  096%=      5-min Rain = 0
KCL2 112149Z 20016KT 11/10 A2972 RMK A01 T01060100  RH  096%=      5-min Rain = 0
KCL2 112150Z 19014KT 11/10 A2972 RMK A01 T01070100  RH  096%=      5-min Rain = 0
KCL2 112151Z 19011KT 11/10 A2972 RMK A01 T01070101  RH  096%=      5-min Rain = 0
KCL2 112152Z 19013KT 11/10 A2972 RMK A01 T01070101  RH  096%=      5-min Rain = 0
KCL2 112153Z 20013KT 11/10 A2973 RMK A01 T01070101  RH  096%=      5-min Rain = 0
KCL2 112154Z 20012KT 11/10 A2973 RMK A01 T01070100  RH  096%=      5-min Rain = 0
KCL2 112155Z 20012KT 11/10 A2972 RMK A01 T01070100  RH  096%=      5-min Rain = 0
KCL2 112156Z 20013KT 11/10 A2972 RMK A01 T01070100  RH  095%=      5-min Rain = 0
KCL2 112157Z 19012KT 11/10 A2972 RMK A01 T01070101  RH  096%=      5-min Rain = 0
KCL2 112158Z 19011KT 11/10 A2972 RMK A01 T01070101  RH  096%=      5-min Rain = 0
KCL2 112159Z 19012KT 11/10 A2972 RMK A01 T01080101  RH  096%=      5-min Rain = 0
KCL2 112200Z 19013KT 11/10 A2972 RMK A01 T01070101  RH  096%=      5-min Rain = 0
KCL2 112201Z 19014KT 11/10 A2972 RMK A01 T01080101  RH  095%=      5-min Rain = 0
KCL2 112202Z 19012KT 11/10 A2972 RMK A01 T01080100  RH  095%=      5-min Rain = 0
KCL2 112203Z 19011KT 11/10 A2972 RMK A01 T01090100  RH  094%=      5-min Rain = 0
KCL2 112204Z 20013G18KT 11/10 A2972 RMK A01 T01100099  RH  093%=      5-min Rain = 0
KCL2 112205Z 19011KT 11/10 A2972 RMK A01 T01100099  RH  093%=      5-min Rain = 0
KCL2 112206Z 19011KT 11/10 A2972 RMK A01 T01110099  RH  093%=      5-min Rain = 0
KCL2 112207Z 20011KT 11/10 A2972 RMK A01 T01110099  RH  093%=      5-min Rain = 0
KCL2 112208Z 19011KT 11/10 A2972 RMK A01 T01110099  RH  092%=      5-min Rain = 0
KCL2 112209Z 19011KT 11/10 A2973 RMK A01 T01110099  RH  092%=      5-min Rain = 0
KCL2 112210Z 19010KT 11/10 A2973 RMK A01 T01110100  RH  093%=      5-min Rain = 0
KCL2 112211Z 20010KT 11/10 A2973 RMK A01 T01110100  RH  093%=      5-min Rain = 0
KCL2 112212Z 20012KT 11/10 A2973 RMK A01 T01110100  RH  093%=      5-min Rain = 0
KCL2 112213Z 19014KT 11/10 A2973 RMK A01 T01110099  RH  093%=      5-min Rain = 0
KCL2 112214Z 20010KT 11/10 A2973 RMK A01 T01120099  RH  092%=      5-min Rain = 0
KCL2 112215Z 19011KT 11/10 A2973 RMK A01 T01120099  RH  092%=      5-min Rain = 0
KCL2 112216Z 19011KT 11/10 A2973 RMK A01 T01120100  RH  092%=      5-min Rain = 0
KCL2 112217Z 19010KT 11/10 A2973 RMK A01 T01110100  RH  093%=      5-min Rain = 0
KCL2 112218Z 20010KT 11/10 A2973 RMK A01 T01110100  RH  093%=      5-min Rain = 0
KCL2 112219Z 20013KT 11/10 A2973 RMK A01 T01110100  RH  093%=      5-min Rain = 0
KCL2 112220Z 20014KT 11/10 A2973 RMK A01 T01110098  RH  092%=      5-min Rain = 0
KCL2 112221Z 20013KT 11/10 A2973 RMK A01 T01130097  RH  090%=      5-min Rain = 0
KCL2 112222Z 19011KT 11/10 A2973 RMK A01 T01140098  RH  090%=      5-min Rain = 0
KCL2 112223Z 19014KT 11/10 A2972 RMK A01 T01130098  RH  091%=      5-min Rain = 0
KCL2 112224Z 19015KT 11/10 A2972 RMK A01 T01130098  RH  090%=      5-min Rain = 0
KCL2 112225Z 19013KT 11/10 A2972 RMK A01 T01130098  RH  090%=      5-min Rain = 0
KCL2 112226Z 19012KT 11/10 A2973 RMK A01 T01130098  RH  091%=      5-min Rain = 0
KCL2 112227Z 19014KT 11/10 A2972 RMK A01 T01130099  RH  091%=      5-min Rain = 0
KCL2 112228Z 20014KT 11/10 A2972 RMK A01 T01120099  RH  091%=      5-min Rain = 0
KCL2 112229Z 19015KT 11/10 A2972 RMK A01 T01120098  RH  091%=      5-min Rain = 0
KCL2 112230Z 19013KT 11/10 A2972 RMK A01 T01130098  RH  091%=      5-min Rain = 0
KCL2 112231Z 19012KT 11/10 A2972 RMK A01 T01130098  RH  090%=      5-min Rain = 0
KCL2 112232Z 19012KT 11/10 A2972 RMK A01 T01130098  RH  091%=      5-min Rain = 0
KCL2 112233Z 19012KT 11/10 A2972 RMK A01 T01130098  RH  091%=      5-min Rain = 0
KCL2 112234Z 19012KT 11/10 A2971 RMK A01 T01130098  RH  091%=      5-min Rain = 0
KCL2 112235Z 19011KT 11/10 A2972 RMK A01 T01130098  RH  091%=      5-min Rain = 0
KCL2 112236Z 19014G19KT 11/10 A2972 RMK A01 T01130098  RH  091%=      5-min Rain = 0
KCL2 112237Z 19013KT 11/10 A2972 RMK A01 T01130097  RH  090%=      5-min Rain = 0
KCL2 112238Z 19012KT 11/10 A2972 RMK A01 T01130097  RH  090%=      5-min Rain = 0
KCL2 112239Z 19014KT 11/10 A2972 RMK A01 T01130098  RH  090%=      5-min Rain = 0
KCL2 112240Z 19010KT 11/10 A2972 RMK A01 T01130098  RH  090%=      5-min Rain = 0
KCL2 112241Z 21011KT 11/10 A2972 RMK A01 T01130098  RH  091%=      5-min Rain = 0
KCL2 112242Z 20011KT 11/10 A2972 RMK A01 T01130098  RH  091%=      5-min Rain = 0
KCL2 112243Z 19013KT 11/10 A2972 RMK A01 T01130098  RH  090%=      5-min Rain = 0
KCL2 112244Z 19012KT 11/10 A2972 RMK A01 T01130097  RH  090%=      5-min Rain = 0
KCL2 112245Z 19014KT 11/10 A2972 RMK A01 T01130097  RH  090%=      5-min Rain = 0
KCL2 112246Z 19012KT 11/10 A2972 RMK A01 T01130097  RH  090%=      5-min Rain = 0
KCL2 112247Z 19013KT 11/10 A2972 RMK A01 T01130098  RH  090%=      5-min Rain = 0
KCL2 112248Z 20011KT 11/10 A2972 RMK A01 T01130098  RH  090%=      5-min Rain = 0
KCL2 112249Z 20011KT 11/10 A2972 RMK A01 T01130097  RH  090%=      5-min Rain = 0
KCL2 112250Z 20011KT 11/10 A2972 RMK A01 T01130097  RH  090%=      5-min Rain = 0
KCL2 112251Z 20010KT 11/10 A2972 RMK A01 T01130097  RH  090%=      5-min Rain = 0
KCL2 112252Z 20012KT 11/10 A2972 RMK A01 T01130097  RH  090%=      5-min Rain = 0
KCL2 112253Z 20012G17KT 11/10 A2972 RMK A01 T01130097  RH  090%=      5-min Rain = 0
KCL2 112254Z 19012KT 11/10 A2971 RMK A01 T01130096  RH  089%=      5-min Rain = 0
KCL2 112255Z 19014KT 11/10 A2971 RMK A01 T01130096  RH  089%=      5-min Rain = 0
KCL2 112256Z 20014KT 11/10 A2971 RMK A01 T01140097  RH  089%=      5-min Rain = 0
KCL2 112257Z 21015KT 11/10 A2971 RMK A01 T01140096  RH  088%=      5-min Rain = 0
KCL2 112258Z 20014KT 12/10 A2971 RMK A01 T01160096  RH  088%=      5-min Rain = 0
KCL2 112259Z 20015KT 12/10 A2971 RMK A01 T01160096  RH  087%=      5-min Rain = 0
KCL2 112300Z 21018KT 12/09 A2971 RMK A01 T01160094  RH  086%=      5-min Rain = 0
KCL2 112301Z 21015G20KT 12/09 A2971 RMK A01 T01190093  RH  084%=      5-min Rain = 0
KCL2 112302Z 21016KT 12/09 A2971 RMK A01 T01200093  RH  084%=      5-min Rain = 0
KCL2 112303Z 21018KT 12/09 A2971 RMK A01 T01200093  RH  084%=      5-min Rain = 0
KCL2 112304Z 21016KT 12/09 A2971 RMK A01 T01200094  RH  084%=      5-min Rain = 0
KCL2 112305Z 21014KT 12/10 A2971 RMK A01 T01190095  RH  085%=      5-min Rain = 0
KCL2 112306Z 21013KT 12/10 A2971 RMK A01 T01190095  RH  085%=      5-min Rain = 0
KCL2 112307Z 21011G16KT 12/10 A2971 RMK A01 T01180096  RH  086%=      5-min Rain = 0
KCL2 112308Z 20013KT 12/10 A2971 RMK A01 T01170096  RH  087%=      5-min Rain = 0
KCL2 112309Z 21012KT 12/10 A2971 RMK A01 T01170095  RH  087%=      5-min Rain = 0
KCL2 112310Z 21012KT 12/10 A2972 RMK A01 T01170096  RH  087%=      5-min Rain = 0
KCL2 112311Z 21016KT 12/10 A2972 RMK A01 T01170096  RH  087%=      5-min Rain = 0
KCL2 112312Z 21015KT 12/10 A2972 RMK A01 T01170095  RH  086%=      5-min Rain = 0
KCL2 112313Z 21017KT 12/09 A2972 RMK A01 T01180094  RH  086%=      5-min Rain = 0
KCL2 112314Z 21015KT 12/10 A2972 RMK A01 T01180095  RH  086%=      5-min Rain = 0
KCL2 112315Z 20014KT 12/10 A2972 RMK A01 T01180095  RH  086%=      5-min Rain = 0
KCL2 112316Z 21015KT 12/09 A2972 RMK A01 T01180094  RH  085%=      5-min Rain = 0
KCL2 112317Z 21013KT 12/10 A2972 RMK A01 T01180095  RH  086%=      5-min Rain = 0
KCL2 112318Z 21013KT 12/10 A2972 RMK A01 T01180096  RH  086%=      5-min Rain = 0
KCL2 112319Z 22015G20KT 12/10 A2972 RMK A01 T01180095  RH  086%=      5-min Rain = 0
KCL2 112320Z 21014KT 12/10 A2973 RMK A01 T01180095  RH  086%=      5-min Rain = 0
KCL2 112321Z 21016KT 12/10 A2973 RMK A01 T01170095  RH  086%=      5-min Rain = 0
KCL2 112322Z 21013KT 12/10 A2973 RMK A01 T01180095  RH  086%=      5-min Rain = 0
KCL2 112323Z 21015KT 12/10 A2972 RMK A01 T01170095  RH  086%=      5-min Rain = 0
KCL2 112324Z 21014KT 12/10 A2972 RMK A01 T01170095  RH  086%=      5-min Rain = 0
KCL2 112325Z 21014KT 12/10 A2972 RMK A01 T01180095  RH  086%=      5-min Rain = 0
KCL2 112326Z 21015KT 12/10 A2972 RMK A01 T01170095  RH  086%=      5-min Rain = 0
KCL2 112327Z 21013G18KT 12/10 A2972 RMK A01 T01180095  RH  086%=      5-min Rain = 0
KCL2 112328Z 21014KT 12/10 A2972 RMK A01 T01180095  RH  086%=      5-min Rain = 0
KCL2 112329Z 20013KT 12/10 A2972 RMK A01 T01170095  RH  086%=      5-min Rain = 0
KCL2 112330Z 21013G18KT 12/10 A2972 RMK A01 T01170095  RH  086%=      5-min Rain = 0
KCL2 112331Z 21014KT 12/10 A2972 RMK A01 T01170095  RH  086%=      5-min Rain = 0
KCL2 112332Z 21014KT 12/09 A2972 RMK A01 T01170094  RH  086%=      5-min Rain = 0
KCL2 112333Z 21012KT 12/10 A2972 RMK A01 T01170095  RH  086%=      5-min Rain = 0
KCL2 112334Z 22015KT 12/10 A2973 RMK A01 T01170095  RH  086%=      5-min Rain = 0
KCL2 112335Z 21016KT 12/09 A2973 RMK A01 T01170094  RH  086%=      5-min Rain = 0
KCL2 112336Z 21015KT 12/09 A2972 RMK A01 T01170094  RH  086%=      5-min Rain = 0
KCL2 112337Z 21013KT 12/09 A2972 RMK A01 T01170094  RH  086%=      5-min Rain = 0
KCL2 112338Z 21014KT 12/09 A2972 RMK A01 T01170094  RH  086%=      5-min Rain = 0
KCL2 112339Z 21013KT 12/09 A2973 RMK A01 T01160094  RH  086%=      5-min Rain = 0
KCL2 112340Z 21012KT 12/09 A2973 RMK A01 T01160094  RH  086%=      5-min Rain = 0
KCL2 112341Z 20012KT 12/10 A2973 RMK A01 T01160095  RH  087%=      5-min Rain = 0
KCL2 112342Z 20013KT 12/10 A2973 RMK A01 T01160095  RH  087%=      5-min Rain = 0
KCL2 112343Z 20014KT 12/09 A2973 RMK A01 T01150094  RH  087%=      5-min Rain = 0
KCL2 112344Z 20011KT 12/09 A2973 RMK A01 T01160094  RH  086%=      5-min Rain = 0
KCL2 112345Z 21014KT 12/09 A2973 RMK A01 T01160094  RH  086%=      5-min Rain = 0
KCL2 112346Z 21013KT 12/09 A2973 RMK A01 T01160094  RH  086%=      5-min Rain = 0
KCL2 112347Z 20015KT 12/09 A2973 RMK A01 T01160094  RH  086%=      5-min Rain = 0
KCL2 112348Z 21015KT 12/09 A2973 RMK A01 T01160094  RH  087%=      5-min Rain = 0
KCL2 112349Z 20014KT 12/09 A2973 RMK A01 T01160094  RH  087%=      5-min Rain = 0
KCL2 112350Z 20012KT 12/09 A2973 RMK A01 T01160094  RH  087%=      5-min Rain = 0
KCL2 112351Z 20013KT 12/09 A2973 RMK A01 T01150094  RH  087%=      5-min Rain = 0
KCL2 112352Z 20014KT 12/09 A2973 RMK A01 T01150094  RH  087%=      5-min Rain = 0
KCL2 112353Z 21014G19KT 12/09 A2973 RMK A01 T01150094  RH  087%=      5-min Rain = 0
KCL2 112354Z 21015KT 12/09 A2973 RMK A01 T01150094  RH  087%=      5-min Rain = 0
KCL2 112355Z 20012KT 12/09 A2973 RMK A01 T01150093  RH  087%=      5-min Rain = 0
KCL2 112356Z 20014KT 12/09 A2973 RMK A01 T01150094  RH  087%=      5-min Rain = 0
KCL2 112357Z 20014KT 12/09 A2973 RMK A01 T01150093  RH  087%=      5-min Rain = 0
KCL2 112358Z 20014KT 12/09 A2973 RMK A01 T01150093  RH  087%=      5-min Rain = 0
KCL2 112359Z 20013KT 12/09 A2973 RMK A01 T01150093  RH  087%=      5-min Rain = 0
KCL2 120000Z 20015KT 12/09 A2973 RMK A01 T01150093  RH  087%=      5-min Rain = 0
KCL2 120001Z 20016KT 12/09 A2973 RMK A01 T01150093  RH  087%=      5-min Rain = 0
KCL2 120002Z 21014KT 12/09 A2973 RMK A01 T01150093  RH  086%=      5-min Rain = 0
KCL2 120003Z 20015KT 12/09 A2973 RMK A01 T01150093  RH  086%=      5-min Rain = 0
KCL2 120004Z 21013KT 12/09 A2973 RMK A01 T01150093  RH  086%=      5-min Rain = 0
KCL2 120005Z 20013KT 12/09 A2973 RMK A01 T01150093  RH  087%=      5-min Rain = 0
KCL2 120006Z 20012KT 11/09 A2973 RMK A01 T01140093  RH  087%=      5-min Rain = 0
KCL2 120007Z 20014KT 11/09 A2973 RMK A01 T01140093  RH  087%=      5-min Rain = 0
KCL2 120008Z 20013KT 12/09 A2973 RMK A01 T01150093  RH  086%=      5-min Rain = 0
KCL2 120009Z 20011KT 12/09 A2973 RMK A01 T01150093  RH  086%=      5-min Rain = 0
KCL2 120010Z 20014KT 12/09 A2973 RMK A01 T01150093  RH  087%=      5-min Rain = 0
KCL2 120011Z 20015KT 12/09 A2973 RMK A01 T01150093  RH  086%=      5-min Rain = 0
KCL2 120012Z 20015KT 12/09 A2973 RMK A01 T01150093  RH  086%=      5-min Rain = 0
KCL2 120013Z 19016KT 12/09 A2974 RMK A01 T01150093  RH  086%=      5-min Rain = 0
KCL2 120014Z 20013KT 12/09 A2974 RMK A01 T01150093  RH  086%=      5-min Rain = 0
KCL2 120015Z 20014KT 12/09 A2974 RMK A01 T01150093  RH  086%=      5-min Rain = 0
KCL2 120016Z 20015KT 12/09 A2974 RMK A01 T01150093  RH  086%=      5-min Rain = 0
KCL2 120017Z 20015KT 12/09 A2974 RMK A01 T01150093  RH  086%=      5-min Rain = 0
KCL2 120018Z 20013KT 12/09 A2974 RMK A01 T01150093  RH  086%=      5-min Rain = 0
KCL2 120019Z 20012KT 12/09 A2974 RMK A01 T01160093  RH  086%=      5-min Rain = 0
KCL2 120020Z 20014KT 12/09 A2974 RMK A01 T01150093  RH  086%=      5-min Rain = 0
KCL2 120021Z 20015KT 12/09 A2974 RMK A01 T01150093  RH  086%=      5-min Rain = 0
KCL2 120022Z 20016KT 12/09 A2974 RMK A01 T01150093  RH  086%=      5-min Rain = 0
KCL2 120023Z 20015KT 12/09 A2974 RMK A01 T01160093  RH  086%=      5-min Rain = 0
KCL2 120024Z 20016KT 12/09 A2973 RMK A01 T01160093  RH  086%=      5-min Rain = 0
KCL2 120025Z 20017KT 12/09 A2973 RMK A01 T01160093  RH  086%=      5-min Rain = 0
KCL2 120026Z 20014KT 12/09 A2974 RMK A01 T01170093  RH  085%=      5-min Rain = 0
KCL2 120027Z 20014KT 12/09 A2974 RMK A01 T01160093  RH  086%=      5-min Rain = 0
KCL2 120028Z 20017KT 12/09 A2974 RMK A01 T01160093  RH  086%=      5-min Rain = 0
KCL2 120029Z 20014KT 12/09 A2974 RMK A01 T01160093  RH  086%=      5-min Rain = 0
KCL2 120030Z 20014KT 12/09 A2974 RMK A01 T01160093  RH  086%=      5-min Rain = 0
KCL2 120031Z 20013KT 12/09 A2974 RMK A01 T01160093  RH  086%=      5-min Rain = 0
KCL2 120032Z 20014KT 12/09 A2974 RMK A01 T01160094  RH  086%=      5-min Rain = 0
KCL2 120033Z 20013KT 12/09 A2974 RMK A01 T01160094  RH  086%=      5-min Rain = 0
KCL2 120034Z 21014KT 12/09 A2974 RMK A01 T01160094  RH  086%=      5-min Rain = 0
KCL2 120035Z 20014KT 12/09 A2974 RMK A01 T01150093  RH  086%=      5-min Rain = 0
KCL2 120036Z 20014KT 12/09 A2974 RMK A01 T01160093  RH  086%=      5-min Rain = 0
KCL2 120037Z 20014KT 12/09 A2974 RMK A01 T01160093  RH  086%=      5-min Rain = 0
KCL2 120038Z 20013G18KT 12/09 A2974 RMK A01 T01160093  RH  086%=      5-min Rain = 0
KCL2 120039Z 20013KT 12/09 A2974 RMK A01 T01150093  RH  086%=      5-min Rain = 0
KCL2 120040Z 20014KT 12/09 A2974 RMK A01 T01150093  RH  086%=      5-min Rain = 0
KCL2 120041Z 21012KT 12/09 A2974 RMK A01 T01150093  RH  086%=      5-min Rain = 0
KCL2 120042Z 20013KT 12/09 A2974 RMK A01 T01150093  RH  086%=      5-min Rain = 0
KCL2 120043Z 20014KT 12/09 A2975 RMK A01 T01150094  RH  087%=      5-min Rain = 0
KCL2 120044Z 20014KT 12/09 A2975 RMK A01 T01150094  RH  087%=      5-min Rain = 0
KCL2 120045Z 20014G19KT 12/09 A2975 RMK A01 T01150094  RH  087%=      5-min Rain = 0
KCL2 120046Z 20015KT 12/09 A2975 RMK A01 T01150094  RH  087%=      5-min Rain = 0
KCL2 120047Z 20014KT 12/09 A2975 RMK A01 T01150094  RH  087%=      5-min Rain = 0
KCL2 120048Z 20013KT 12/09 A2975 RMK A01 T01150094  RH  087%=      5-min Rain = 0
KCL2 120049Z 20014KT 12/09 A2975 RMK A01 T01150094  RH  087%=      5-min Rain = 0
KCL2 120050Z 20015KT 12/09 A2975 RMK A01 T01150094  RH  087%=      5-min Rain = 0
KCL2 120051Z 20012KT 12/09 A2975 RMK A01 T01150094  RH  087%=      5-min Rain = 0
KCL2 120052Z 20012G17KT 12/09 A2975 RMK A01 T01150094  RH  087%=      5-min Rain = 0
KCL2 120053Z 20014KT 11/09 A2975 RMK A01 T01140094  RH  087%=      5-min Rain = 0
KCL2 120054Z 20012KT 11/09 A2975 RMK A01 T01140094  RH  087%=      5-min Rain = 0
KCL2 120055Z 20015KT 11/09 A2975 RMK A01 T01140094  RH  087%=      5-min Rain = 0
KCL2 120056Z 20014G20KT 12/09 A2975 RMK A01 T01150094  RH  087%=      5-min Rain = 0
KCL2 120057Z 21014KT 12/09 A2975 RMK A01 T01150094  RH  087%=      5-min Rain = 0
KCL2 120058Z 20014KT 12/09 A2975 RMK A01 T01150094  RH  087%=      5-min Rain = 0
KCL2 120059Z 20012KT 12/09 A2975 RMK A01 T01150094  RH  087%=      5-min Rain = 0
KCL2 120100Z 20015KT 12/09 A2975 RMK A01 T01150094  RH  087%=      5-min Rain = 0
KCL2 120101Z 20017KT 11/09 A2975 RMK A01 T01140094  RH  087%=      5-min Rain = 0
KCL2 120102Z 20013KT 11/09 A2975 RMK A01 T01140094  RH  087%=      5-min Rain = 0
KCL2 120103Z 20013G18KT 11/09 A2975 RMK A01 T01140094  RH  087%=      5-min Rain = 0
KCL2 120104Z 20015KT 11/09 A2975 RMK A01 T01140094  RH  087%=      5-min Rain = 0
KCL2 120105Z 20015G20KT 12/09 A2975 RMK A01 T01150094  RH  087%=      5-min Rain = 0
KCL2 120106Z 21013KT 12/09 A2975 RMK A01 T01150094  RH  087%=      5-min Rain = 0
KCL2 120107Z 20013KT 12/09 A2976 RMK A01 T01150093  RH  086%=      5-min Rain = 0
KCL2 120108Z 20016KT 12/09 A2976 RMK A01 T01150093  RH  087%=      5-min Rain = 0
KCL2 120109Z 20017KT 12/09 A2976 RMK A01 T01150094  RH  087%=      5-min Rain = 0
KCL2 120110Z 20016KT 12/09 A2976 RMK A01 T01160093  RH  086%=      5-min Rain = 0
KCL2 120111Z 20015KT 12/09 A2976 RMK A01 T01160093  RH  086%=      5-min Rain = 0
KCL2 120112Z 20015KT 12/09 A2976 RMK A01 T01170093  RH  086%=      5-min Rain = 0
KCL2 120113Z 20015KT 12/09 A2976 RMK A01 T01170093  RH  085%=      5-min Rain = 0
KCL2 120114Z 20016KT 12/09 A2976 RMK A01 T01170093  RH  085%=      5-min Rain = 0
KCL2 120115Z 20016G22KT 12/09 A2976 RMK A01 T01180093  RH  085%=      5-min Rain = 0
KCL2 120116Z 21016G21KT 12/09 A2976 RMK A01 T01180093  RH  085%=      5-min Rain = 0
KCL2 120117Z 21014KT 12/09 A2976 RMK A01 T01180093  RH  085%=      5-min Rain = 0
KCL2 120118Z 20013KT 12/09 A2976 RMK A01 T01180093  RH  085%=      5-min Rain = 0
KCL2 120119Z 20015G20KT 12/09 A2976 RMK A01 T01170093  RH  085%=      5-min Rain = 0
KCL2 120120Z 20017KT 12/09 A2976 RMK A01 T01170093  RH  085%=      5-min Rain = 0
KCL2 120121Z 20014G22KT 12/09 A2976 RMK A01 T01170092  RH  085%=      5-min Rain = 0
KCL2 120122Z 21015KT 12/09 A2976 RMK A01 T01170093  RH  085%=      5-min Rain = 0
KCL2 120123Z 21014KT 12/09 A2976 RMK A01 T01170093  RH  085%=      5-min Rain = 0
KCL2 120124Z 20015KT 12/09 A2976 RMK A01 T01170093  RH  085%=      5-min Rain = 0
KCL2 120125Z 20016KT 12/09 A2976 RMK A01 T01170093  RH  085%=      5-min Rain = 0
KCL2 120126Z 21016KT 12/09 A2976 RMK A01 T01160092  RH  085%=      5-min Rain = 0
KCL2 120127Z 21016KT 12/09 A2977 RMK A01 T01160092  RH  085%=      5-min Rain = 0
KCL2 120128Z 21015G20KT 12/09 A2977 RMK A01 T01160092  RH  085%=      5-min Rain = 0
KCL2 120129Z 21016G21KT 12/09 A2976 RMK A01 T01160092  RH  085%=      5-min Rain = 0
KCL2 120130Z 20016KT 12/09 A2977 RMK A01 T01160092  RH  085%=      5-min Rain = 0
KCL2 120131Z 20015G21KT 12/09 A2977 RMK A01 T01160092  RH  085%=      5-min Rain = 0
KCL2 120132Z 21018KT 12/09 A2977 RMK A01 T01160091  RH  085%=      5-min Rain = 0
KCL2 120133Z 21016KT 12/09 A2977 RMK A01 T01160091  RH  084%=      5-min Rain = 0
KCL2 120134Z 21016G21KT 12/09 A2977 RMK A01 T01170091  RH  084%=      5-min Rain = 0
KCL2 120135Z 21016G22KT 12/09 A2977 RMK A01 T01170091  RH  084%=      5-min Rain = 0
KCL2 120136Z 21014KT 12/09 A2977 RMK A01 T01170090  RH  084%=      5-min Rain = 0
KCL2 120137Z 21015KT 12/09 A2977 RMK A01 T01170090  RH  084%=      5-min Rain = 0
KCL2 120138Z 21014KT 12/09 A2977 RMK A01 T01160090  RH  084%=      5-min Rain = 0
KCL2 120139Z 21017KT 12/09 A2977 RMK A01 T01160090  RH  084%=      5-min Rain = 0
KCL2 120140Z 22016G21KT 12/09 A2977 RMK A01 T01160089  RH  083%=      5-min Rain = 0
KCL2 120141Z 22015KT 12/09 A2977 RMK A01 T01170089  RH  083%=      5-min Rain = 0
KCL2 120142Z 22019G25KT 12/09 A2977 RMK A01 T01160088  RH  083%=      5-min Rain = 0
KCL2 120143Z 21015KT 12/09 A2977 RMK A01 T01160088  RH  083%=      5-min Rain = 0
KCL2 120144Z 21018KT 12/09 A2977 RMK A01 T01160088  RH  083%=      5-min Rain = 0
KCL2 120145Z 21019G24KT 12/09 A2977 RMK A01 T01170088  RH  082%=      5-min Rain = 0
KCL2 120146Z 22018KT 12/09 A2977 RMK A01 T01170087  RH  082%=      5-min Rain = 0
KCL2 120147Z 22020KT 12/09 A2977 RMK A01 T01180088  RH  082%=      5-min Rain = 0
KCL2 120148Z 21016KT 12/09 A2977 RMK A01 T01170088  RH  082%=      5-min Rain = 0
KCL2 120149Z 22016G21KT 12/09 A2978 RMK A01 T01170088  RH  082%=      5-min Rain = 0
KCL2 120150Z 22018G23KT 12/09 A2978 RMK A01 T01160088  RH  083%=      5-min Rain = 0
KCL2 120151Z 22017KT 12/09 A2978 RMK A01 T01150088  RH  083%=      5-min Rain = 0
KCL2 120152Z 22019KT 12/09 A2978 RMK A01 T01150088  RH  083%=      5-min Rain = 0
KCL2 120153Z 21018KT 12/09 A2978 RMK A01 T01150088  RH  083%=      5-min Rain = 0
KCL2 120154Z 21016KT 12/09 A2978 RMK A01 T01150088  RH  083%=      5-min Rain = 0
KCL2 120155Z 22016G21KT 12/09 A2978 RMK A01 T01150088  RH  084%=      5-min Rain = 0
KCL2 120156Z 22017KT 11/09 A2978 RMK A01 T01140088  RH  084%=      5-min Rain = 0
KCL2 120157Z 22016KT 11/09 A2978 RMK A01 T01140088  RH  084%=      5-min Rain = 0
KCL2 120158Z 22019KT 11/09 A2978 RMK A01 T01140088  RH  084%=      5-min Rain = 0
KCL2 120159Z 22016KT 11/09 A2978 RMK A01 T01140088  RH  084%=      5-min Rain = 0
KCL2 120200Z 22017KT 11/09 A2978 RMK A01 T01140088  RH  084%=      5-min Rain = 0
KCL2 120201Z 22016KT 11/09 A2978 RMK A01 T01140088  RH  084%=      5-min Rain = 0
KCL2 120202Z 22018KT 11/09 A2978 RMK A01 T01140088  RH  084%=      5-min Rain = 0
KCL2 120203Z 22017KT 11/09 A2978 RMK A01 T01140088  RH  084%=      5-min Rain = 0
KCL2 120204Z 22020KT 11/09 A2978 RMK A01 T01140088  RH  084%=      5-min Rain = 0
KCL2 120205Z 22017KT 12/09 A2978 RMK A01 T01150087  RH  083%=      5-min Rain = 0
KCL2 120206Z 22017KT 12/09 A2978 RMK A01 T01150087  RH  083%=      5-min Rain = 0
KCL2 120207Z 22015G20KT 12/09 A2978 RMK A01 T01150087  RH  083%=      5-min Rain = 0
KCL2 120208Z 22016G21KT 12/09 A2979 RMK A01 T01150087  RH  083%=      5-min Rain = 0
KCL2 120209Z 22018KT 12/09 A2979 RMK A01 T01150087  RH  083%=      5-min Rain = 0
KCL2 120210Z 22017KT 12/09 A2979 RMK A01 T01150088  RH  083%=      5-min Rain = 0
KCL2 120211Z 22017G23KT 12/09 A2979 RMK A01 T01150087  RH  083%=      5-min Rain = 0
KCL2 120212Z 22017KT 12/09 A2979 RMK A01 T01150087  RH  083%=      5-min Rain = 0
KCL2 120213Z 22018KT 12/09 A2979 RMK A01 T01150087  RH  083%=      5-min Rain = 0
KCL2 120214Z 22018KT 12/09 A298 RMK A01 T01150087  RH  083%=      5-min Rain = 0
KCL2 120215Z 23017G22KT 12/09 A298 RMK A01 T01150087  RH  083%=      5-min Rain = 0
KCL2 120216Z 23017G24KT 12/09 A298 RMK A01 T01150087  RH  083%=      5-min Rain = 0
KCL2 120217Z 23016KT 12/09 A2981 RMK A01 T01150087  RH  083%=      5-min Rain = 0
KCL2 120218Z 23015KT 11/09 A2981 RMK A01 T01140087  RH  083%=      5-min Rain = 0
KCL2 120219Z 24017KT 11/09 A2981 RMK A01 T01130087  RH  084%=      5-min Rain = 0
KCL2 120220Z 24018G24KT 11/09 A2981 RMK A01 T01130087  RH  084%=      5-min Rain = 0
KCL2 120221Z 25016KT 11/09 A2982 RMK A01 T01130087  RH  084%=      5-min Rain = 0
KCL2 120222Z 24018KT 11/09 A2981 RMK A01 T01130087  RH  084%=      5-min Rain = 0
KCL2 120223Z 23020KT 11/09 A2981 RMK A01 T01130085  RH  083%=      5-min Rain = 0
KCL2 120224Z 23020G25KT 12/09 A2981 RMK A01 T01150085  RH  082%=      5-min Rain = 0
KCL2 120225Z 24019KT 12/09 A2982 RMK A01 T01160085  RH  081%=      5-min Rain = 0
KCL2 120226Z 23019G26KT 12/09 A2982 RMK A01 T01160086  RH  082%=      5-min Rain = 0
KCL2 120227Z 24016KT 12/09 A2982 RMK A01 T01150086  RH  082%=      5-min Rain = 0
KCL2 120228Z 25016KT 12/09 A2983 RMK A01 T01150086  RH  082%=      5-min Rain = 0
KCL2 120229Z 24015KT 11/09 A2983 RMK A01 T01140086  RH  083%=      5-min Rain = 0
KCL2 120230Z 24019G24KT 11/09 A2983 RMK A01 T01130085  RH  083%=      5-min Rain = 0
KCL2 120231Z 25017KT 11/09 A2983 RMK A01 T01130086  RH  083%=      5-min Rain = 0
KCL2 120232Z 25019KT 11/09 A2983 RMK A01 T01130086  RH  083%=      5-min Rain = 0
KCL2 120233Z 24017KT 11/09 A2983 RMK A01 T01120086  RH  084%=      5-min Rain = 0
KCL2 120234Z 25017KT 11/09 A2983 RMK A01 T01120086  RH  084%=      5-min Rain = 0
KCL2 120235Z 25016KT 11/09 A2983 RMK A01 T01120086  RH  084%=      5-min Rain = 0
KCL2 120236Z 25020KT 11/09 A2983 RMK A01 T01120085  RH  084%=      5-min Rain = 0
KCL2 120237Z 25017KT 11/09 A2984 RMK A01 T01120085  RH  083%=      5-min Rain = 0
KCL2 120238Z 25014G19KT 11/09 A2984 RMK A01 T01120085  RH  083%=      5-min Rain = 0
KCL2 120239Z 25016KT 11/09 A2984 RMK A01 T01120086  RH  084%=      5-min Rain = 0
KCL2 120240Z 25016KT 11/09 A2984 RMK A01 T01110086  RH  084%=      5-min Rain = 0
KCL2 120241Z 25015G20KT 11/09 A2984 RMK A01 T01110086  RH  084%=      5-min Rain = 0
KCL2 120242Z 25016KT 11/09 A2984 RMK A01 T01110086  RH  085%=      5-min Rain = 0
KCL2 120243Z 26018KT 11/09 A2984 RMK A01 T01110086  RH  085%=      5-min Rain = 0
KCL2 120244Z 25015KT 11/09 A2985 RMK A01 T01120086  RH  084%=      5-min Rain = 0
KCL2 120245Z 26014KT 11/09 A2985 RMK A01 T01120086  RH  084%=      5-min Rain = 0
KCL2 120246Z 26013KT 11/09 A2985 RMK A01 T01110086  RH  084%=      5-min Rain = 0
KCL2 120247Z 26015KT 11/09 A2985 RMK A01 T01100086  RH  085%=      5-min Rain = 0
KCL2 120248Z 25016G22KT 11/09 A2985 RMK A01 T01090086  RH  085%=      5-min Rain = 0
KCL2 120249Z 26015G20KT 11/09 A2985 RMK A01 T01100086  RH  085%=      5-min Rain = 0
KCL2 120250Z 26015G20KT 11/09 A2985 RMK A01 T01100086  RH  085%=      5-min Rain = 0
KCL2 120251Z 25016KT 11/09 A2985 RMK A01 T01100086  RH  085%=      5-min Rain = 0
KCL2 120252Z 26014KT 11/09 A2985 RMK A01 T01100086  RH  085%=      5-min Rain = 0
KCL2 120253Z 26013KT 11/09 A2986 RMK A01 T01100086  RH  085%=      5-min Rain = 0
KCL2 120254Z 26014KT 11/09 A2986 RMK A01 T01090085  RH  085%=      5-min Rain = 0
KCL2 120255Z 26016KT 11/09 A2986 RMK A01 T01090085  RH  085%=      5-min Rain = 0
KCL2 120256Z 27015G20KT 11/08 A2986 RMK A01 T01090084  RH  085%=      5-min Rain = 0
KCL2 120257Z 27014KT 11/08 A2986 RMK A01 T01090084  RH  084%=      5-min Rain = 0
KCL2 120258Z 27012KT 11/08 A2986 RMK A01 T01090084  RH  085%=      5-min Rain = 0
KCL2 120259Z 28013G18KT 11/08 A2986 RMK A01 T01080084  RH  085%=      5-min Rain = 0
KCL2 120300Z 27013KT 11/08 A2986 RMK A01 T01080083  RH  085%=      5-min Rain = 0
KCL2 120301Z 27015G20KT 11/08 A2986 RMK A01 T01080079  RH  082%=      5-min Rain = 0
KCL2 120302Z 27014G19KT 11/08 A2986 RMK A01 T01100075  RH  079%=      5-min Rain = 0
KCL2 120303Z 28013KT 11/08 A2986 RMK A01 T01110079  RH  081%=      5-min Rain = 0
KCL2 120304Z 28013KT 11/08 A2986 RMK A01 T01100080  RH  081%=      5-min Rain = 0
KCL2 120305Z 29013KT 11/08 A2986 RMK A01 T01090078  RH  081%=      5-min Rain = 0
KCL2 120306Z 28014KT 11/07 A2986 RMK A01 T01090067  RH  075%=      5-min Rain = 0
KCL2 120307Z 28016KT 11/06 A2986 RMK A01 T01090061  RH  072%=      5-min Rain = 0
KCL2 120308Z 29014KT 11/06 A2986 RMK A01 T01100055  RH  069%=      5-min Rain = 0
KCL2 120309Z 29013KT 11/05 A2987 RMK A01 T01100049  RH  066%=      5-min Rain = 0
KCL2 120310Z 29014KT 11/04 A2987 RMK A01 T01090039  RH  062%=      5-min Rain = 0
KCL2 120311Z 29014KT 11/03 A2987 RMK A01 T01080028  RH  057%=      5-min Rain = 0
KCL2 120312Z 29016KT 11/02 A2987 RMK A01 T01090020  RH  054%=      5-min Rain = 0
KCL2 120313Z 29018KT 11/01 A2987 RMK A01 T01090011  RH  051%=      5-min Rain = 0
KCL2 120314Z 29015KT 11/01 A2987 RMK A01 T01090005  RH  048%=      5-min Rain = 0
KCL2 120315Z 29016KT 11/00 A2987 RMK A01 T01090000  RH  047%=      5-min Rain = 0
KCL2 120316Z 29016G21KT 11/M00 A2987 RMK A01 T01071002  RH  047%=      5-min Rain = 0
KCL2 120317Z 29016KT 11/M01 A2987 RMK A01 T01071011  RH  044%=      5-min Rain = 0
KCL2 120318Z 29013KT 11/M01 A2987 RMK A01 T01071011  RH  044%=      5-min Rain = 0
KCL2 120319Z 29013KT 11/M01 A2987 RMK A01 T01051010  RH  045%=      5-min Rain = 0
KCL2 120320Z 29014KT 10/M01 A2987 RMK A01 T01041014  RH  044%=      5-min Rain = 0
KCL2 120321Z 29014KT 10/M02 A2987 RMK A01 T01041017  RH  043%=      5-min Rain = 0
KCL2 120322Z 29014KT 10/M02 A2987 RMK A01 T01041016  RH  043%=      5-min Rain = 0
KCL2 120323Z 29014KT 10/M02 A2987 RMK A01 T01031020  RH  042%=      5-min Rain = 0
KCL2 120324Z 29013KT 10/M02 A2987 RMK A01 T01031021  RH  042%=      5-min Rain = 0
KCL2 120325Z 29013KT 10/M02 A2987 RMK A01 T01021021  RH  042%=      5-min Rain = 0
KCL2 120326Z 29015KT 10/M02 A2988 RMK A01 T01011024  RH  041%=      5-min Rain = 0
KCL2 120327Z 29018G24KT 10/M03 A2988 RMK A01 T01011027  RH  041%=      5-min Rain = 0
KCL2 120328Z 29016G21KT 10/M03 A2988 RMK A01 T01031031  RH  039%=      5-min Rain = 0
KCL2 120329Z 28014G19KT 10/M03 A2988 RMK A01 T01041029  RH  039%=      5-min Rain = 0
KCL2 120330Z 29016KT 10/M03 A2988 RMK A01 T01031029  RH  039%=      5-min Rain = 0
KCL2 120331Z 29015G21KT 10/M03 A2988 RMK A01 T01031031  RH  039%=      5-min Rain = 0
KCL2 120332Z 28017G23KT 10/M03 A2988 RMK A01 T01031032  RH  039%=      5-min Rain = 0
KCL2 120333Z 28016KT 10/M04 A2988 RMK A01 T01041038  RH  037%=      5-min Rain = 0
KCL2 120334Z 28017KT 10/M04 A2988 RMK A01 T01041037  RH  037%=      5-min Rain = 0
KCL2 120335Z 28015G20KT 10/M04 A2988 RMK A01 T01041038  RH  036%=      5-min Rain = 0
KCL2 120336Z 28014KT 10/M04 A2988 RMK A01 T01041036  RH  037%=      5-min Rain = 0
KCL2 120337Z 28016KT 10/M04 A2988 RMK A01 T01031040  RH  036%=      5-min Rain = 0
KCL2 120338Z 28015KT 10/M04 A2988 RMK A01 T01031038  RH  037%=      5-min Rain = 0
KCL2 120339Z 28014KT 10/M04 A2988 RMK A01 T01021037  RH  037%=      5-min Rain = 0
KCL2 120340Z 28015KT 10/M04 A2988 RMK A01 T01021039  RH  037%=      5-min Rain = 0
KCL2 120341Z 28015G20KT 10/M04 A2988 RMK A01 T01031040  RH  036%=      5-min Rain = 0
KCL2 120342Z 28015KT 10/M04 A2988 RMK A01 T01031042  RH  036%=      5-min Rain = 0
KCL2 120343Z 28014KT 10/M04 A2988 RMK A01 T01031040  RH  036%=      5-min Rain = 0
KCL2 120344Z 28013KT 10/M04 A2988 RMK A01 T01021039  RH  037%=      5-min Rain = 0
KCL2 120345Z 28014KT 10/M04 A2988 RMK A01 T01011039  RH  037%=      5-min Rain = 0
KCL2 120346Z 28013KT 10/M04 A2988 RMK A01 T01011038  RH  037%=      5-min Rain = 0
KCL2 120347Z 28013KT 10/M04 A2988 RMK A01 T01001037  RH  038%=      5-min Rain = 0
KCL2 120348Z 28014KT 10/M04 A2988 RMK A01 T01001036  RH  038%=      5-min Rain = 0
KCL2 120349Z 27013KT 10/M04 A2988 RMK A01 T00991037  RH  038%=      5-min Rain = 0
KCL2 120350Z 28011KT 10/M03 A2988 RMK A01 T01001034  RH  039%=      5-min Rain = 0
KCL2 120351Z 28014KT 10/M03 A2988 RMK A01 T00981033  RH  040%=      5-min Rain = 0
KCL2 120352Z 28013KT 10/M03 A2988 RMK A01 T00971033  RH  040%=      5-min Rain = 0
KCL2 120353Z 28012KT 10/M03 A2988 RMK A01 T00971032  RH  040%=      5-min Rain = 0
KCL2 120354Z 28014KT 10/M03 A2988 RMK A01 T00961032  RH  040%=      5-min Rain = 0
KCL2 120355Z 27012KT 10/M03 A2988 RMK A01 T00961033  RH  040%=      5-min Rain = 0
KCL2 120356Z 28013KT 10/M03 A2988 RMK A01 T00951031  RH  041%=      5-min Rain = 0
KCL2 120357Z 28014KT 10/M03 A2988 RMK A01 T00951033  RH  040%=      5-min Rain = 0
KCL2 120358Z 27013KT 10/M03 A2988 RMK A01 T00961033  RH  040%=      5-min Rain = 0
KCL2 120359Z 28013G18KT 10/M03 A2988 RMK A01 T00951032  RH  041%=      5-min Rain = 0
KCL2 120400Z 28014G19KT 10/M04 A2988 RMK A01 T00951035  RH  040%=      5-min Rain = 0
KCL2 120401Z 28013KT 10/M04 A2988 RMK A01 T00961036  RH  039%=      5-min Rain = 0
KCL2 120402Z 28013KT 10/M04 A2988 RMK A01 T00961037  RH  039%=      5-min Rain = 0
KCL2 120403Z 28012G18KT 10/M04 A2988 RMK A01 T00961036  RH  039%=      5-min Rain = 0
KCL2 120404Z 28014KT 10/M04 A2987 RMK A01 T00951039  RH  039%=      5-min Rain = 0
KCL2 120405Z 27015KT 10/M04 A2988 RMK A01 T00961041  RH  038%=      5-min Rain = 0
KCL2 120406Z 28014G21KT 10/M04 A2988 RMK A01 T00981042  RH  037%=      5-min Rain = 0
KCL2 120407Z 27014KT 10/M04 A2988 RMK A01 T00981039  RH  038%=      5-min Rain = 0
KCL2 120408Z 27015KT 10/M04 A2988 RMK A01 T00961040  RH  038%=      5-min Rain = 0
KCL2 120409Z 27015KT 10/M04 A2988 RMK A01 T00971040  RH  038%=      5-min Rain = 0
KCL2 120410Z 27013KT 10/M04 A2988 RMK A01 T00971041  RH  038%=      5-min Rain = 0
KCL2 120411Z 27012KT 10/M04 A2988 RMK A01 T00961039  RH  038%=      5-min Rain = 0
KCL2 120412Z 27014KT 10/M04 A2988 RMK A01 T00951038  RH  039%=      5-min Rain = 0
KCL2 120413Z 27015KT 09/M04 A2988 RMK A01 T00941039  RH  039%=      5-min Rain = 0
KCL2 120414Z 27014G19KT 09/M04 A2989 RMK A01 T00941040  RH  039%=      5-min Rain = 0
KCL2 120415Z 27014KT 10/M04 A2989 RMK A01 T00951040  RH  038%=      5-min Rain = 0
KCL2 120416Z 27014KT 10/M04 A2989 RMK A01 T00951039  RH  039%=      5-min Rain = 0
KCL2 120417Z 27013KT 09/M04 A2989 RMK A01 T00941038  RH  039%=      5-min Rain = 0
KCL2 120418Z 27014KT 09/M04 A2989 RMK A01 T00931039  RH  039%=      5-min Rain = 0
KCL2 120419Z 27013KT 09/M04 A2989 RMK A01 T00931041  RH  039%=      5-min Rain = 0
KCL2 120420Z 27015KT 09/M04 A2989 RMK A01 T00921042  RH  038%=      5-min Rain = 0
KCL2 120421Z 27013KT 09/M05 A2989 RMK A01 T00931046  RH  037%=      5-min Rain = 0
KCL2 120422Z 27014KT 09/M05 A2989 RMK A01 T00941045  RH  037%=      5-min Rain = 0
KCL2 120423Z 27016KT 09/M05 A2989 RMK A01 T00931049  RH  036%=      5-min Rain = 0
KCL2 120424Z 27015KT 10/M05 A2989 RMK A01 T00951049  RH  036%=      5-min Rain = 0
KCL2 120425Z 27015G21KT 10/M05 A2989 RMK A01 T00951050  RH  036%=      5-min Rain = 0
KCL2 120426Z 27014KT 10/M05 A2989 RMK A01 T00951051  RH  035%=      5-min Rain = 0
KCL2 120427Z 27015KT 10/M05 A2989 RMK A01 T00951051  RH  035%=      5-min Rain = 0
KCL2 120428Z 27016KT 10/M05 A2989 RMK A01 T00951053  RH  035%=      5-min Rain = 0
KCL2 120429Z 27016G21KT 10/M05 A2989 RMK A01 T00951054  RH  035%=      5-min Rain = 0
KCL2 120430Z 27016KT 10/M05 A2989 RMK A01 T00951054  RH  035%=      5-min Rain = 0
KCL2 120431Z 27016KT 10/M05 A2989 RMK A01 T00951054  RH  035%=      5-min Rain = 0
KCL2 120432Z 27015KT 10/M06 A2989 RMK A01 T00951055  RH  034%=      5-min Rain = 0
KCL2 120433Z 27015KT 10/M06 A2989 RMK A01 T00951055  RH  034%=      5-min Rain = 0
KCL2 120434Z 27014KT 09/M05 A2989 RMK A01 T00941054  RH  035%=      5-min Rain = 0
KCL2 120435Z 27014G19KT 09/M05 A299 RMK A01 T00941052  RH  035%=      5-min Rain = 0
KCL2 120436Z 27013G18KT 09/M05 A299 RMK A01 T00921051  RH  036%=      5-min Rain = 0
KCL2 120437Z 26015KT 09/M05 A2989 RMK A01 T00911052  RH  036%=      5-min Rain = 0
KCL2 120438Z 27014KT 09/M05 A2989 RMK A01 T00911052  RH  036%=      5-min Rain = 0
KCL2 120439Z 27016G21KT 09/M05 A2989 RMK A01 T00911052  RH  036%=      5-min Rain = 0
KCL2 120440Z 27013KT 09/M05 A2989 RMK A01 T00921053  RH  036%=      5-min Rain = 0
KCL2 120441Z 26015KT 09/M05 A2989 RMK A01 T00911052  RH  036%=      5-min Rain = 0
KCL2 120442Z 27015KT 09/M05 A299 RMK A01 T00911054  RH  036%=      5-min Rain = 0
KCL2 120443Z 26014KT 09/M05 A299 RMK A01 T00921053  RH  036%=      5-min Rain = 0
KCL2 120444Z 26016KT 09/M05 A299 RMK A01 T00911053  RH  036%=      5-min Rain = 0
KCL2 120445Z 26016G21KT 09/M05 A299 RMK A01 T00911053  RH  036%=      5-min Rain = 0
KCL2 120446Z 26015KT 09/M05 A299 RMK A01 T00921054  RH  035%=      5-min Rain = 0
KCL2 120447Z 26016KT 09/M05 A299 RMK A01 T00911052  RH  036%=      5-min Rain = 0
KCL2 120448Z 26015KT 09/M05 A299 RMK A01 T00911053  RH  036%=      5-min Rain = 0
KCL2 120449Z 26015KT 09/M05 A299 RMK A01 T00911052  RH  036%=      5-min Rain = 0
KCL2 120450Z 26016KT 09/M05 A299 RMK A01 T00901052  RH  036%=      5-min Rain = 0
KCL2 120451Z 26015KT 09/M05 A299 RMK A01 T00901051  RH  037%=      5-min Rain = 0
KCL2 120452Z 26015KT 09/M05 A299 RMK A01 T00901051  RH  037%=      5-min Rain = 0
KCL2 120453Z 26014KT 09/M05 A299 RMK A01 T00891050  RH  037%=      5-min Rain = 0
KCL2 120454Z 26015KT 09/M05 A299 RMK A01 T00881050  RH  037%=      5-min Rain = 0
KCL2 120455Z 26015KT 09/M05 A299 RMK A01 T00881051  RH  037%=      5-min Rain = 0
KCL2 120456Z 26013KT 09/M05 A299 RMK A01 T00881050  RH  037%=      5-min Rain = 0
KCL2 120457Z 26015KT 09/M05 A299 RMK A01 T00871051  RH  037%=      5-min Rain = 0
KCL2 120458Z 26013KT 09/M05 A299 RMK A01 T00871051  RH  037%=      5-min Rain = 0
KCL2 120459Z 26013KT 09/M05 A299 RMK A01 T00871050  RH  038%=      5-min Rain = 0
KCL2 120500Z 27014KT 09/M05 A299 RMK A01 T00861050  RH  038%=      5-min Rain = 0
KCL2 120501Z 26013KT 09/M05 A299 RMK A01 T00851052  RH  037%=      5-min Rain = 0
KCL2 120502Z 26014KT 09/M05 A299 RMK A01 T00861051  RH  037%=      5-min Rain = 0
KCL2 120503Z 26015KT 09/M05 A299 RMK A01 T00861051  RH  037%=      5-min Rain = 0
KCL2 120504Z 27012KT 09/M05 A2991 RMK A01 T00861050  RH  038%=      5-min Rain = 0
KCL2 120505Z 26016G21KT 09/M05 A2991 RMK A01 T00851050  RH  038%=      5-min Rain = 0
KCL2 120506Z 27015KT 09/M05 A2991 RMK A01 T00861053  RH  037%=      5-min Rain = 0
KCL2 120507Z 27014KT 09/M05 A2991 RMK A01 T00871051  RH  037%=      5-min Rain = 0
KCL2 120508Z 26014KT 09/M05 A2991 RMK A01 T00861051  RH  037%=      5-min Rain = 0
KCL2 120509Z 26015KT 09/M05 A2991 RMK A01 T00861053  RH  037%=      5-min Rain = 0
KCL2 120510Z 27015KT 09/M05 A2991 RMK A01 T00861053  RH  037%=      5-min Rain = 0
KCL2 120511Z 27015KT 09/M06 A2991 RMK A01 T00871055  RH  036%=      5-min Rain = 0
KCL2 120512Z 26015KT 09/M06 A2991 RMK A01 T00871055  RH  036%=      5-min Rain = 0
KCL2 120513Z 26014KT 09/M06 A2991 RMK A01 T00881055  RH  036%=      5-min Rain = 0
KCL2 120514Z 27014G19KT 09/M05 A2991 RMK A01 T00881054  RH  036%=      5-min Rain = 0
KCL2 120515Z 27014KT 09/M05 A2991 RMK A01 T00871054  RH  037%=      5-min Rain = 0
KCL2 120516Z 27015KT 09/M05 A2991 RMK A01 T00861054  RH  037%=      5-min Rain = 0
KCL2 120517Z 27014G19KT 09/M06 A2991 RMK A01 T00861055  RH  036%=      5-min Rain = 0
KCL2 120518Z 27016KT 09/M06 A2991 RMK A01 T00871055  RH  036%=      5-min Rain = 0
KCL2 120519Z 27014KT 09/M05 A2991 RMK A01 T00871054  RH  036%=      5-min Rain = 0
KCL2 120520Z 27016KT 09/M05 A2991 RMK A01 T00861053  RH  037%=      5-min Rain = 0
KCL2 120521Z 26015KT 09/M06 A2991 RMK A01 T00871056  RH  036%=      5-min Rain = 0
KCL2 120522Z 26016KT 09/M06 A2991 RMK A01 T00881055  RH  036%=      5-min Rain = 0
KCL2 120523Z 26014KT 09/M06 A2991 RMK A01 T00881055  RH  036%=      5-min Rain = 0
KCL2 120524Z 26014KT 09/M05 A2991 RMK A01 T00881054  RH  036%=      5-min Rain = 0
KCL2 120525Z 26015G21KT 09/M05 A2991 RMK A01 T00871053  RH  037%=      5-min Rain = 0
KCL2 120526Z 27016KT 09/M05 A2991 RMK A01 T00861054  RH  037%=      5-min Rain = 0
KCL2 120527Z 26014KT 09/M05 A2992 RMK A01 T00861053  RH  037%=      5-min Rain = 0
KCL2 120528Z 26014KT 09/M05 A2992 RMK A01 T00861052  RH  037%=      5-min Rain = 0
KCL2 120529Z 26013KT 09/M05 A2992 RMK A01 T00851052  RH  038%=      5-min Rain = 0
KCL2 120530Z 26015KT 08/M05 A2992 RMK A01 T00841051  RH  038%=      5-min Rain = 0
KCL2 120531Z 26016KT 08/M05 A2992 RMK A01 T00841051  RH  038%=      5-min Rain = 0
KCL2 120532Z 26015G20KT 09/M05 A2992 RMK A01 T00851052  RH  037%=      5-min Rain = 0
KCL2 120533Z 26015KT 09/M05 A2992 RMK A01 T00851052  RH  037%=      5-min Rain = 0
KCL2 120534Z 27016KT 09/M05 A2992 RMK A01 T00851054  RH  037%=      5-min Rain = 0
KCL2 120535Z 27016KT 09/M05 A2992 RMK A01 T00871054  RH  036%=      5-min Rain = 0
KCL2 120536Z 26015KT 09/M05 A2992 RMK A01 T00871054  RH  036%=      5-min Rain = 0
KCL2 120537Z 27014KT 09/M06 A2992 RMK A01 T00871055  RH  036%=      5-min Rain = 0
KCL2 120538Z 27013KT 09/M05 A2992 RMK A01 T00871053  RH  036%=      5-min Rain = 0
KCL2 120539Z 27014G19KT 09/M05 A2992 RMK A01 T00861052  RH  037%=      5-min Rain = 0
KCL2 120540Z 27014KT 09/M05 A2992 RMK A01 T00861054  RH  037%=      5-min Rain = 0
KCL2 120541Z 27013G18KT 09/M05 A2992 RMK A01 T00861054  RH  037%=      5-min Rain = 0
KCL2 120542Z 27014KT 09/M05 A2992 RMK A01 T00861053  RH  037%=      5-min Rain = 0
KCL2 120543Z 27014G19KT 09/M05 A2992 RMK A01 T00851054  RH  037%=      5-min Rain = 0
KCL2 120544Z 27014KT 09/M05 A2993 RMK A01 T00851052  RH  037%=      5-min Rain = 0
KCL2 120545Z 27014KT 09/M05 A2993 RMK A01 T00851053  RH  037%=      5-min Rain = 0
KCL2 120546Z 27014G20KT 09/M05 A2993 RMK A01 T00851053  RH  037%=      5-min Rain = 0
KCL2 120547Z 27013KT 09/M05 A2993 RMK A01 T00851052  RH  037%=      5-min Rain = 0
KCL2 120548Z 27015KT 09/M05 A2993 RMK A01 T00851052  RH  037%=      5-min Rain = 0
KCL2 120549Z 27017KT 09/M06 A2993 RMK A01 T00851055  RH  037%=      5-min Rain = 0
KCL2 120550Z 27013KT 09/M05 A2993 RMK A01 T00861054  RH  037%=      5-min Rain = 0
KCL2 120551Z 27015KT 09/M05 A2993 RMK A01 T00861053  RH  037%=      5-min Rain = 0
KCL2 120552Z 27017KT 09/M05 A2993 RMK A01 T00861053  RH  037%=      5-min Rain = 0
KCL2 120553Z 27015KT 09/M06 A2993 RMK A01 T00861055  RH  037%=      5-min Rain = 0
KCL2 120554Z 27015KT 09/M05 A2993 RMK A01 T00861054  RH  037%=      5-min Rain = 0
KCL2 120555Z 27016KT 09/M06 A2993 RMK A01 T00861055  RH  036%=      5-min Rain = 0
KCL2 120556Z 27015KT 09/M06 A2993 RMK A01 T00871055  RH  036%=      5-min Rain = 0
KCL2 120557Z 27016KT 09/M06 A2993 RMK A01 T00871055  RH  036%=      5-min Rain = 0
KCL2 120558Z 27014G19KT 09/M05 A2994 RMK A01 T00871054  RH  036%=      5-min Rain = 0
KCL2 120559Z 27015KT 09/M05 A2994 RMK A01 T00861054  RH  037%=      5-min Rain = 0
KCL2 120600Z 27013KT 09/M06 A2994 RMK A01 T00861055  RH  036%=      5-min Rain = 0

Page generated in 0.0616 seconds.